<?xml version="1.0" encoding="UTF-8" standalone="no" ?>
<gpx xmlns="http://www.topografix.com/GPX/1/1" xmlns:xsi="http://www.w3.org/2001/XMLSchema-instance" xsi:schemaLocation="http://www.topografix.com/GPX/1/1 http://www.topografix.com/GPX/1/1/gpx.xsd" version="1.1" creator="VisuGPX - https://www.visugpx.com">
  <metadata>
    <name>Le circuit du Galibot à Petite-Rosselle</name>
    <desc><![CDATA[Départ vallée du Schafbach, parking du chalet des Amis de la Nature. Sur tout le circuit suivre le balisage rectangle horizontal jaune. Au rond-point du Pont Frontière vers Großrosseln monter à gauche vers  cité Gargan, rue de l?Église et ses logements Mineurs, Hôtel de Ville, l?Église saint Théodore, le Monument du Mineur et le Collège Louis Armand, le Puits Vuillemin, le Parc Explor Wendel, la Cité minière Wendel Nord. Après le château d?eau, le chemin suit la frontière franco-allemande. Traversée du ruisseau Schafbach puis montée vers Puits Saint-Joseph. À proximité du chevalement du Puits Saint-Charles, voir le Pferdestall, écurie des chevaux de la mine. Monter le long du cimetière et descendre vers le parking.
Photos : https://photos.app.goo.gl/CqPo1XgGsoPzXXmX9 
Site du club vosgien de Bitche : http://www.clubvosgienbitche.fr/]]></desc>
  </metadata>
  <trk>
    <name><![CDATA[9081953-galibot-petite-rosselle]]></name>
    <trkseg>
      <trkpt lat="49.21512" lon="6.84288">
        <ele>214</ele>
        <time>2018-09-03T10:25:29Z</time>
      </trkpt>
      <trkpt lat="49.2151" lon="6.8428">
        <ele>214</ele>
        <time>2018-09-03T10:26:29Z</time>
      </trkpt>
      <trkpt lat="49.21506" lon="6.84274">
        <ele>213</ele>
        <time>2018-09-03T10:27:29Z</time>
      </trkpt>
      <trkpt lat="49.215" lon="6.84262">
        <ele>213</ele>
        <time>2018-09-03T10:28:29Z</time>
      </trkpt>
      <trkpt lat="49.21494" lon="6.84254">
        <ele>213</ele>
        <time>2018-09-03T10:29:29Z</time>
      </trkpt>
      <trkpt lat="49.21478" lon="6.8423">
        <ele>213</ele>
        <time>2018-09-03T10:30:29Z</time>
      </trkpt>
      <trkpt lat="49.2145" lon="6.84177">
        <ele>209</ele>
        <time>2018-09-03T10:31:29Z</time>
      </trkpt>
      <trkpt lat="49.21436" lon="6.84161">
        <ele>206</ele>
        <time>2018-09-03T10:32:29Z</time>
      </trkpt>
      <trkpt lat="49.21431" lon="6.8415">
        <ele>206</ele>
        <time>2018-09-03T10:33:29Z</time>
      </trkpt>
      <trkpt lat="49.21423" lon="6.84135">
        <ele>204</ele>
        <time>2018-09-03T10:34:29Z</time>
      </trkpt>
      <trkpt lat="49.21418" lon="6.84121">
        <ele>202</ele>
        <time>2018-09-03T10:35:29Z</time>
      </trkpt>
      <trkpt lat="49.21412" lon="6.84106">
        <ele>202</ele>
        <time>2018-09-03T10:36:29Z</time>
      </trkpt>
      <trkpt lat="49.21405" lon="6.84097">
        <ele>203</ele>
        <time>2018-09-03T10:37:29Z</time>
      </trkpt>
      <trkpt lat="49.21395" lon="6.84087">
        <ele>205</ele>
        <time>2018-09-03T10:38:29Z</time>
      </trkpt>
      <trkpt lat="49.21383" lon="6.84072">
        <ele>207</ele>
        <time>2018-09-03T10:39:29Z</time>
      </trkpt>
      <trkpt lat="49.21377" lon="6.84062">
        <ele>208</ele>
        <time>2018-09-03T10:40:29Z</time>
      </trkpt>
      <trkpt lat="49.21371" lon="6.84046">
        <ele>208</ele>
        <time>2018-09-03T10:41:29Z</time>
      </trkpt>
      <trkpt lat="49.2136" lon="6.84008">
        <ele>207</ele>
        <time>2018-09-03T10:42:29Z</time>
      </trkpt>
      <trkpt lat="49.21358" lon="6.83996">
        <ele>207</ele>
        <time>2018-09-03T10:43:29Z</time>
      </trkpt>
      <trkpt lat="49.21351" lon="6.83979">
        <ele>206</ele>
        <time>2018-09-03T10:44:29Z</time>
      </trkpt>
      <trkpt lat="49.21345" lon="6.83963">
        <ele>205</ele>
        <time>2018-09-03T10:45:29Z</time>
      </trkpt>
      <trkpt lat="49.21343" lon="6.83954">
        <ele>204</ele>
        <time>2018-09-03T10:46:29Z</time>
      </trkpt>
      <trkpt lat="49.21343" lon="6.83928">
        <ele>202</ele>
        <time>2018-09-03T10:47:29Z</time>
      </trkpt>
      <trkpt lat="49.2133" lon="6.83912">
        <ele>202</ele>
        <time>2018-09-03T10:48:29Z</time>
      </trkpt>
      <trkpt lat="49.21331" lon="6.83889">
        <ele>201</ele>
        <time>2018-09-03T10:49:29Z</time>
      </trkpt>
      <trkpt lat="49.21326" lon="6.83878">
        <ele>202</ele>
        <time>2018-09-03T10:50:29Z</time>
      </trkpt>
      <trkpt lat="49.21319" lon="6.83858">
        <ele>202</ele>
        <time>2018-09-03T10:51:29Z</time>
      </trkpt>
      <trkpt lat="49.21307" lon="6.83836">
        <ele>202</ele>
        <time>2018-09-03T10:52:29Z</time>
      </trkpt>
      <trkpt lat="49.21298" lon="6.83822">
        <ele>203</ele>
        <time>2018-09-03T10:53:29Z</time>
      </trkpt>
      <trkpt lat="49.21291" lon="6.83813">
        <ele>204</ele>
        <time>2018-09-03T10:54:29Z</time>
      </trkpt>
      <trkpt lat="49.21284" lon="6.83802">
        <ele>204</ele>
        <time>2018-09-03T10:55:29Z</time>
      </trkpt>
      <trkpt lat="49.21271" lon="6.83789">
        <ele>204</ele>
        <time>2018-09-03T10:56:29Z</time>
      </trkpt>
      <trkpt lat="49.21259" lon="6.83782">
        <ele>204</ele>
        <time>2018-09-03T10:57:29Z</time>
      </trkpt>
      <trkpt lat="49.21248" lon="6.83773">
        <ele>203</ele>
        <time>2018-09-03T10:58:29Z</time>
      </trkpt>
      <trkpt lat="49.21241" lon="6.83765">
        <ele>202</ele>
        <time>2018-09-03T10:59:29Z</time>
      </trkpt>
      <trkpt lat="49.21233" lon="6.83753">
        <ele>201</ele>
        <time>2018-09-03T11:00:29Z</time>
      </trkpt>
      <trkpt lat="49.2122" lon="6.83735">
        <ele>201</ele>
        <time>2018-09-03T11:01:29Z</time>
      </trkpt>
      <trkpt lat="49.21207" lon="6.83722">
        <ele>201</ele>
        <time>2018-09-03T11:02:29Z</time>
      </trkpt>
      <trkpt lat="49.21194" lon="6.8371">
        <ele>200</ele>
        <time>2018-09-03T11:03:29Z</time>
      </trkpt>
      <trkpt lat="49.21183" lon="6.837">
        <ele>199</ele>
        <time>2018-09-03T11:04:29Z</time>
      </trkpt>
      <trkpt lat="49.21175" lon="6.83694">
        <ele>198</ele>
        <time>2018-09-03T11:05:29Z</time>
      </trkpt>
      <trkpt lat="49.21163" lon="6.8369">
        <ele>196</ele>
        <time>2018-09-03T11:06:29Z</time>
      </trkpt>
      <trkpt lat="49.21155" lon="6.83693">
        <ele>196</ele>
        <time>2018-09-03T11:07:29Z</time>
      </trkpt>
      <trkpt lat="49.21149" lon="6.83706">
        <ele>197</ele>
        <time>2018-09-03T11:08:29Z</time>
      </trkpt>
      <trkpt lat="49.21138" lon="6.83728">
        <ele>197</ele>
        <time>2018-09-03T11:09:29Z</time>
      </trkpt>
      <trkpt lat="49.21132" lon="6.83748">
        <ele>198</ele>
        <time>2018-09-03T11:10:29Z</time>
      </trkpt>
      <trkpt lat="49.21126" lon="6.83767">
        <ele>198</ele>
        <time>2018-09-03T11:11:29Z</time>
      </trkpt>
      <trkpt lat="49.21124" lon="6.83785">
        <ele>199</ele>
        <time>2018-09-03T11:12:29Z</time>
      </trkpt>
      <trkpt lat="49.21121" lon="6.83798">
        <ele>200</ele>
        <time>2018-09-03T11:13:29Z</time>
      </trkpt>
      <trkpt lat="49.21115" lon="6.83808">
        <ele>199</ele>
        <time>2018-09-03T11:14:29Z</time>
      </trkpt>
      <trkpt lat="49.21102" lon="6.83842">
        <ele>199</ele>
        <time>2018-09-03T11:15:29Z</time>
      </trkpt>
      <trkpt lat="49.21095" lon="6.83858">
        <ele>198</ele>
        <time>2018-09-03T11:16:29Z</time>
      </trkpt>
      <trkpt lat="49.21091" lon="6.83874">
        <ele>198</ele>
        <time>2018-09-03T11:17:29Z</time>
      </trkpt>
      <trkpt lat="49.21085" lon="6.83889">
        <ele>198</ele>
        <time>2018-09-03T11:18:29Z</time>
      </trkpt>
      <trkpt lat="49.21079" lon="6.83905">
        <ele>197</ele>
        <time>2018-09-03T11:19:29Z</time>
      </trkpt>
      <trkpt lat="49.21071" lon="6.83917">
        <ele>197</ele>
        <time>2018-09-03T11:20:29Z</time>
      </trkpt>
      <trkpt lat="49.21065" lon="6.83935">
        <ele>197</ele>
        <time>2018-09-03T11:21:29Z</time>
      </trkpt>
      <trkpt lat="49.21059" lon="6.83945">
        <ele>197</ele>
        <time>2018-09-03T11:22:29Z</time>
      </trkpt>
      <trkpt lat="49.21054" lon="6.83952">
        <ele>197</ele>
        <time>2018-09-03T11:23:29Z</time>
      </trkpt>
      <trkpt lat="49.21047" lon="6.83968">
        <ele>197</ele>
        <time>2018-09-03T11:24:29Z</time>
      </trkpt>
      <trkpt lat="49.21042" lon="6.83988">
        <ele>197</ele>
        <time>2018-09-03T11:25:29Z</time>
      </trkpt>
      <trkpt lat="49.2104" lon="6.84001">
        <ele>197</ele>
        <time>2018-09-03T11:26:29Z</time>
      </trkpt>
      <trkpt lat="49.21035" lon="6.84021">
        <ele>198</ele>
        <time>2018-09-03T11:27:29Z</time>
      </trkpt>
      <trkpt lat="49.21027" lon="6.84035">
        <ele>198</ele>
        <time>2018-09-03T11:28:29Z</time>
      </trkpt>
      <trkpt lat="49.21024" lon="6.8405">
        <ele>198</ele>
        <time>2018-09-03T11:29:29Z</time>
      </trkpt>
      <trkpt lat="49.21019" lon="6.84064">
        <ele>198</ele>
        <time>2018-09-03T11:30:29Z</time>
      </trkpt>
      <trkpt lat="49.21015" lon="6.8408">
        <ele>198</ele>
        <time>2018-09-03T11:31:29Z</time>
      </trkpt>
      <trkpt lat="49.21011" lon="6.84103">
        <ele>199</ele>
        <time>2018-09-03T11:32:29Z</time>
      </trkpt>
      <trkpt lat="49.21009" lon="6.8412">
        <ele>200</ele>
        <time>2018-09-03T11:33:29Z</time>
      </trkpt>
      <trkpt lat="49.21006" lon="6.84133">
        <ele>200</ele>
        <time>2018-09-03T11:34:29Z</time>
      </trkpt>
      <trkpt lat="49.21" lon="6.8415">
        <ele>201</ele>
        <time>2018-09-03T11:35:29Z</time>
      </trkpt>
      <trkpt lat="49.20996" lon="6.84163">
        <ele>201</ele>
        <time>2018-09-03T11:36:29Z</time>
      </trkpt>
      <trkpt lat="49.20987" lon="6.84181">
        <ele>201</ele>
        <time>2018-09-03T11:37:29Z</time>
      </trkpt>
      <trkpt lat="49.20976" lon="6.84198">
        <ele>201</ele>
        <time>2018-09-03T11:38:29Z</time>
      </trkpt>
      <trkpt lat="49.2097" lon="6.84211">
        <ele>201</ele>
        <time>2018-09-03T11:39:29Z</time>
      </trkpt>
      <trkpt lat="49.20962" lon="6.84226">
        <ele>201</ele>
        <time>2018-09-03T11:40:29Z</time>
      </trkpt>
      <trkpt lat="49.20955" lon="6.84233">
        <ele>200</ele>
        <time>2018-09-03T11:41:29Z</time>
      </trkpt>
      <trkpt lat="49.20946" lon="6.84245">
        <ele>199</ele>
        <time>2018-09-03T11:42:29Z</time>
      </trkpt>
      <trkpt lat="49.20937" lon="6.84258">
        <ele>199</ele>
        <time>2018-09-03T11:43:29Z</time>
      </trkpt>
      <trkpt lat="49.20929" lon="6.84275">
        <ele>199</ele>
        <time>2018-09-03T11:44:29Z</time>
      </trkpt>
      <trkpt lat="49.20921" lon="6.84285">
        <ele>199</ele>
        <time>2018-09-03T11:45:29Z</time>
      </trkpt>
      <trkpt lat="49.20914" lon="6.84299">
        <ele>199</ele>
        <time>2018-09-03T11:46:29Z</time>
      </trkpt>
      <trkpt lat="49.20904" lon="6.84325">
        <ele>200</ele>
        <time>2018-09-03T11:47:29Z</time>
      </trkpt>
      <trkpt lat="49.20898" lon="6.84339">
        <ele>201</ele>
        <time>2018-09-03T11:48:29Z</time>
      </trkpt>
      <trkpt lat="49.2089" lon="6.84351">
        <ele>201</ele>
        <time>2018-09-03T11:49:29Z</time>
      </trkpt>
      <trkpt lat="49.20884" lon="6.84371">
        <ele>202</ele>
        <time>2018-09-03T11:50:29Z</time>
      </trkpt>
      <trkpt lat="49.20877" lon="6.8438">
        <ele>201</ele>
        <time>2018-09-03T11:51:29Z</time>
      </trkpt>
      <trkpt lat="49.20856" lon="6.84399">
        <ele>200</ele>
        <time>2018-09-03T11:52:29Z</time>
      </trkpt>
      <trkpt lat="49.20848" lon="6.84406">
        <ele>200</ele>
        <time>2018-09-03T11:53:29Z</time>
      </trkpt>
      <trkpt lat="49.20831" lon="6.84426">
        <ele>199</ele>
        <time>2018-09-03T11:54:29Z</time>
      </trkpt>
      <trkpt lat="49.20823" lon="6.84434">
        <ele>198</ele>
        <time>2018-09-03T11:55:29Z</time>
      </trkpt>
      <trkpt lat="49.20815" lon="6.84444">
        <ele>197</ele>
        <time>2018-09-03T11:56:29Z</time>
      </trkpt>
      <trkpt lat="49.20809" lon="6.84453">
        <ele>196</ele>
        <time>2018-09-03T11:57:29Z</time>
      </trkpt>
      <trkpt lat="49.20809" lon="6.84465">
        <ele>196</ele>
        <time>2018-09-03T11:58:29Z</time>
      </trkpt>
      <trkpt lat="49.20809" lon="6.84483">
        <ele>196</ele>
        <time>2018-09-03T11:59:29Z</time>
      </trkpt>
      <trkpt lat="49.20815" lon="6.84495">
        <ele>196</ele>
        <time>2018-09-03T12:00:29Z</time>
      </trkpt>
      <trkpt lat="49.2082" lon="6.84508">
        <ele>196</ele>
        <time>2018-09-03T12:01:29Z</time>
      </trkpt>
      <trkpt lat="49.20828" lon="6.84514">
        <ele>197</ele>
        <time>2018-09-03T12:02:29Z</time>
      </trkpt>
      <trkpt lat="49.20835" lon="6.8452">
        <ele>197</ele>
        <time>2018-09-03T12:03:29Z</time>
      </trkpt>
      <trkpt lat="49.2085" lon="6.84533">
        <ele>199</ele>
        <time>2018-09-03T12:04:29Z</time>
      </trkpt>
      <trkpt lat="49.20864" lon="6.84539">
        <ele>200</ele>
        <time>2018-09-03T12:05:29Z</time>
      </trkpt>
      <trkpt lat="49.20876" lon="6.84545">
        <ele>201</ele>
        <time>2018-09-03T12:06:29Z</time>
      </trkpt>
      <trkpt lat="49.20886" lon="6.84546">
        <ele>203</ele>
        <time>2018-09-03T12:07:29Z</time>
      </trkpt>
      <trkpt lat="49.20894" lon="6.84547">
        <ele>204</ele>
        <time>2018-09-03T12:08:29Z</time>
      </trkpt>
      <trkpt lat="49.20902" lon="6.8455">
        <ele>204</ele>
        <time>2018-09-03T12:09:29Z</time>
      </trkpt>
      <trkpt lat="49.20916" lon="6.84557">
        <ele>206</ele>
        <time>2018-09-03T12:10:29Z</time>
      </trkpt>
      <trkpt lat="49.20937" lon="6.84581">
        <ele>206</ele>
        <time>2018-09-03T12:11:29Z</time>
      </trkpt>
      <trkpt lat="49.20947" lon="6.84589">
        <ele>207</ele>
        <time>2018-09-03T12:12:29Z</time>
      </trkpt>
      <trkpt lat="49.20958" lon="6.84604">
        <ele>207</ele>
        <time>2018-09-03T12:13:29Z</time>
      </trkpt>
      <trkpt lat="49.20962" lon="6.84615">
        <ele>207</ele>
        <time>2018-09-03T12:14:29Z</time>
      </trkpt>
      <trkpt lat="49.2099" lon="6.84671">
        <ele>205</ele>
        <time>2018-09-03T12:15:29Z</time>
      </trkpt>
      <trkpt lat="49.20996" lon="6.84686">
        <ele>206</ele>
        <time>2018-09-03T12:16:29Z</time>
      </trkpt>
      <trkpt lat="49.21004" lon="6.847">
        <ele>207</ele>
        <time>2018-09-03T12:17:29Z</time>
      </trkpt>
      <trkpt lat="49.2101" lon="6.84714">
        <ele>208</ele>
        <time>2018-09-03T12:18:29Z</time>
      </trkpt>
      <trkpt lat="49.21018" lon="6.84732">
        <ele>210</ele>
        <time>2018-09-03T12:19:29Z</time>
      </trkpt>
      <trkpt lat="49.21025" lon="6.84742">
        <ele>211</ele>
        <time>2018-09-03T12:20:29Z</time>
      </trkpt>
      <trkpt lat="49.21029" lon="6.84755">
        <ele>212</ele>
        <time>2018-09-03T12:21:29Z</time>
      </trkpt>
      <trkpt lat="49.21032" lon="6.84768">
        <ele>213</ele>
        <time>2018-09-03T12:22:29Z</time>
      </trkpt>
      <trkpt lat="49.21036" lon="6.8478">
        <ele>214</ele>
        <time>2018-09-03T12:23:29Z</time>
      </trkpt>
      <trkpt lat="49.21043" lon="6.84799">
        <ele>215</ele>
        <time>2018-09-03T12:24:29Z</time>
      </trkpt>
      <trkpt lat="49.21047" lon="6.84817">
        <ele>215</ele>
        <time>2018-09-03T12:25:29Z</time>
      </trkpt>
      <trkpt lat="49.2105" lon="6.84836">
        <ele>216</ele>
        <time>2018-09-03T12:26:29Z</time>
      </trkpt>
      <trkpt lat="49.21054" lon="6.84862">
        <ele>217</ele>
        <time>2018-09-03T12:27:29Z</time>
      </trkpt>
      <trkpt lat="49.21056" lon="6.8488">
        <ele>218</ele>
        <time>2018-09-03T12:28:29Z</time>
      </trkpt>
      <trkpt lat="49.21061" lon="6.84913">
        <ele>219</ele>
        <time>2018-09-03T12:29:29Z</time>
      </trkpt>
      <trkpt lat="49.21064" lon="6.84929">
        <ele>220</ele>
        <time>2018-09-03T12:30:29Z</time>
      </trkpt>
      <trkpt lat="49.21065" lon="6.84948">
        <ele>220</ele>
        <time>2018-09-03T12:31:29Z</time>
      </trkpt>
      <trkpt lat="49.21064" lon="6.84961">
        <ele>221</ele>
        <time>2018-09-03T12:32:29Z</time>
      </trkpt>
      <trkpt lat="49.21064" lon="6.84963">
        <ele>221</ele>
        <time>2018-09-03T12:33:29Z</time>
      </trkpt>
      <trkpt lat="49.21057" lon="6.84956">
        <ele>221</ele>
        <time>2018-09-03T12:34:29Z</time>
      </trkpt>
      <trkpt lat="49.21049" lon="6.84957">
        <ele>222</ele>
        <time>2018-09-03T12:35:29Z</time>
      </trkpt>
      <trkpt lat="49.21041" lon="6.84953">
        <ele>222</ele>
        <time>2018-09-03T12:36:29Z</time>
      </trkpt>
      <trkpt lat="49.21039" lon="6.8494">
        <ele>222</ele>
        <time>2018-09-03T12:37:29Z</time>
      </trkpt>
      <trkpt lat="49.2102" lon="6.84908">
        <ele>221</ele>
        <time>2018-09-03T12:38:29Z</time>
      </trkpt>
      <trkpt lat="49.21004" lon="6.84884">
        <ele>220</ele>
        <time>2018-09-03T12:39:29Z</time>
      </trkpt>
      <trkpt lat="49.20997" lon="6.84867">
        <ele>220</ele>
        <time>2018-09-03T12:40:29Z</time>
      </trkpt>
      <trkpt lat="49.20989" lon="6.84856">
        <ele>220</ele>
        <time>2018-09-03T12:41:29Z</time>
      </trkpt>
      <trkpt lat="49.20985" lon="6.84845">
        <ele>220</ele>
        <time>2018-09-03T12:42:29Z</time>
      </trkpt>
      <trkpt lat="49.20978" lon="6.84836">
        <ele>221</ele>
        <time>2018-09-03T12:43:29Z</time>
      </trkpt>
      <trkpt lat="49.20971" lon="6.84829">
        <ele>221</ele>
        <time>2018-09-03T12:44:29Z</time>
      </trkpt>
      <trkpt lat="49.20962" lon="6.84825">
        <ele>222</ele>
        <time>2018-09-03T12:45:29Z</time>
      </trkpt>
      <trkpt lat="49.20954" lon="6.8482">
        <ele>223</ele>
        <time>2018-09-03T12:46:29Z</time>
      </trkpt>
      <trkpt lat="49.20949" lon="6.84808">
        <ele>222</ele>
        <time>2018-09-03T12:47:29Z</time>
      </trkpt>
      <trkpt lat="49.20945" lon="6.84792">
        <ele>220</ele>
        <time>2018-09-03T12:48:29Z</time>
      </trkpt>
      <trkpt lat="49.20941" lon="6.8478">
        <ele>219</ele>
        <time>2018-09-03T12:49:29Z</time>
      </trkpt>
      <trkpt lat="49.20934" lon="6.84773">
        <ele>219</ele>
        <time>2018-09-03T12:50:29Z</time>
      </trkpt>
      <trkpt lat="49.20926" lon="6.84778">
        <ele>221</ele>
        <time>2018-09-03T12:51:29Z</time>
      </trkpt>
      <trkpt lat="49.20917" lon="6.84772">
        <ele>221</ele>
        <time>2018-09-03T12:52:29Z</time>
      </trkpt>
      <trkpt lat="49.20908" lon="6.84771">
        <ele>222</ele>
        <time>2018-09-03T12:53:29Z</time>
      </trkpt>
      <trkpt lat="49.20901" lon="6.84766">
        <ele>221</ele>
        <time>2018-09-03T12:54:29Z</time>
      </trkpt>
      <trkpt lat="49.20879" lon="6.8475">
        <ele>221</ele>
        <time>2018-09-03T12:55:29Z</time>
      </trkpt>
      <trkpt lat="49.20872" lon="6.84744">
        <ele>220</ele>
        <time>2018-09-03T12:56:29Z</time>
      </trkpt>
      <trkpt lat="49.20862" lon="6.84739">
        <ele>220</ele>
        <time>2018-09-03T12:57:29Z</time>
      </trkpt>
      <trkpt lat="49.20851" lon="6.84738">
        <ele>221</ele>
        <time>2018-09-03T12:58:29Z</time>
      </trkpt>
      <trkpt lat="49.2084" lon="6.84747">
        <ele>223</ele>
        <time>2018-09-03T12:59:29Z</time>
      </trkpt>
      <trkpt lat="49.20832" lon="6.84761">
        <ele>225</ele>
        <time>2018-09-03T13:00:29Z</time>
      </trkpt>
      <trkpt lat="49.20827" lon="6.84772">
        <ele>225</ele>
        <time>2018-09-03T13:01:29Z</time>
      </trkpt>
      <trkpt lat="49.20821" lon="6.84798">
        <ele>227</ele>
        <time>2018-09-03T13:02:29Z</time>
      </trkpt>
      <trkpt lat="49.2082" lon="6.84811">
        <ele>228</ele>
        <time>2018-09-03T13:03:29Z</time>
      </trkpt>
      <trkpt lat="49.20816" lon="6.84823">
        <ele>228</ele>
        <time>2018-09-03T13:04:29Z</time>
      </trkpt>
      <trkpt lat="49.20814" lon="6.84835">
        <ele>229</ele>
        <time>2018-09-03T13:05:29Z</time>
      </trkpt>
      <trkpt lat="49.20816" lon="6.84848">
        <ele>229</ele>
        <time>2018-09-03T13:06:29Z</time>
      </trkpt>
      <trkpt lat="49.20812" lon="6.84862">
        <ele>228</ele>
        <time>2018-09-03T13:07:29Z</time>
      </trkpt>
      <trkpt lat="49.20813" lon="6.84878">
        <ele>228</ele>
        <time>2018-09-03T13:08:29Z</time>
      </trkpt>
      <trkpt lat="49.20821" lon="6.84891">
        <ele>229</ele>
        <time>2018-09-03T13:09:29Z</time>
      </trkpt>
      <trkpt lat="49.20829" lon="6.84895">
        <ele>230</ele>
        <time>2018-09-03T13:10:29Z</time>
      </trkpt>
      <trkpt lat="49.20839" lon="6.849">
        <ele>230</ele>
        <time>2018-09-03T13:11:29Z</time>
      </trkpt>
      <trkpt lat="49.20849" lon="6.8491">
        <ele>230</ele>
        <time>2018-09-03T13:12:29Z</time>
      </trkpt>
      <trkpt lat="49.20861" lon="6.84919">
        <ele>230</ele>
        <time>2018-09-03T13:13:29Z</time>
      </trkpt>
      <trkpt lat="49.2087" lon="6.8493">
        <ele>230</ele>
        <time>2018-09-03T13:14:29Z</time>
      </trkpt>
      <trkpt lat="49.20877" lon="6.84949">
        <ele>230</ele>
        <time>2018-09-03T13:15:29Z</time>
      </trkpt>
      <trkpt lat="49.20877" lon="6.84976">
        <ele>229</ele>
        <time>2018-09-03T13:16:29Z</time>
      </trkpt>
      <trkpt lat="49.20883" lon="6.84985">
        <ele>229</ele>
        <time>2018-09-03T13:17:29Z</time>
      </trkpt>
      <trkpt lat="49.20876" lon="6.8499">
        <ele>228</ele>
        <time>2018-09-03T13:18:29Z</time>
      </trkpt>
      <trkpt lat="49.2087" lon="6.84998">
        <ele>228</ele>
        <time>2018-09-03T13:19:29Z</time>
      </trkpt>
      <trkpt lat="49.20856" lon="6.84998">
        <ele>228</ele>
        <time>2018-09-03T13:20:29Z</time>
      </trkpt>
      <trkpt lat="49.20845" lon="6.84994">
        <ele>227</ele>
        <time>2018-09-03T13:21:29Z</time>
      </trkpt>
      <trkpt lat="49.2082" lon="6.84991">
        <ele>227</ele>
        <time>2018-09-03T13:22:29Z</time>
      </trkpt>
      <trkpt lat="49.2081" lon="6.8499">
        <ele>226</ele>
        <time>2018-09-03T13:23:29Z</time>
      </trkpt>
      <trkpt lat="49.20802" lon="6.84991">
        <ele>226</ele>
        <time>2018-09-03T13:24:29Z</time>
      </trkpt>
      <trkpt lat="49.20792" lon="6.84989">
        <ele>226</ele>
        <time>2018-09-03T13:25:29Z</time>
      </trkpt>
      <trkpt lat="49.2078" lon="6.84989">
        <ele>225</ele>
        <time>2018-09-03T13:26:29Z</time>
      </trkpt>
      <trkpt lat="49.20768" lon="6.84992">
        <ele>225</ele>
        <time>2018-09-03T13:27:29Z</time>
      </trkpt>
      <trkpt lat="49.20758" lon="6.84993">
        <ele>224</ele>
        <time>2018-09-03T13:28:29Z</time>
      </trkpt>
      <trkpt lat="49.20705" lon="6.8502">
        <ele>226</ele>
        <time>2018-09-03T13:29:29Z</time>
      </trkpt>
      <trkpt lat="49.20696" lon="6.85025">
        <ele>227</ele>
        <time>2018-09-03T13:30:29Z</time>
      </trkpt>
      <trkpt lat="49.20686" lon="6.85032">
        <ele>227</ele>
        <time>2018-09-03T13:31:29Z</time>
      </trkpt>
      <trkpt lat="49.20672" lon="6.85041">
        <ele>228</ele>
        <time>2018-09-03T13:32:29Z</time>
      </trkpt>
      <trkpt lat="49.2066" lon="6.85048">
        <ele>228</ele>
        <time>2018-09-03T13:33:29Z</time>
      </trkpt>
      <trkpt lat="49.20652" lon="6.85053">
        <ele>228</ele>
        <time>2018-09-03T13:34:29Z</time>
      </trkpt>
      <trkpt lat="49.20643" lon="6.85058">
        <ele>228</ele>
        <time>2018-09-03T13:35:29Z</time>
      </trkpt>
      <trkpt lat="49.20632" lon="6.85063">
        <ele>228</ele>
        <time>2018-09-03T13:36:29Z</time>
      </trkpt>
      <trkpt lat="49.20624" lon="6.8507">
        <ele>228</ele>
        <time>2018-09-03T13:37:29Z</time>
      </trkpt>
      <trkpt lat="49.20617" lon="6.85082">
        <ele>229</ele>
        <time>2018-09-03T13:38:29Z</time>
      </trkpt>
      <trkpt lat="49.20608" lon="6.85096">
        <ele>231</ele>
        <time>2018-09-03T13:39:29Z</time>
      </trkpt>
      <trkpt lat="49.20601" lon="6.85097">
        <ele>231</ele>
        <time>2018-09-03T13:40:29Z</time>
      </trkpt>
      <trkpt lat="49.20592" lon="6.85099">
        <ele>231</ele>
        <time>2018-09-03T13:41:29Z</time>
      </trkpt>
      <trkpt lat="49.20588" lon="6.8512">
        <ele>234</ele>
        <time>2018-09-03T13:42:29Z</time>
      </trkpt>
      <trkpt lat="49.20577" lon="6.85121">
        <ele>234</ele>
        <time>2018-09-03T13:43:29Z</time>
      </trkpt>
      <trkpt lat="49.20563" lon="6.85131">
        <ele>234</ele>
        <time>2018-09-03T13:44:29Z</time>
      </trkpt>
      <trkpt lat="49.20535" lon="6.85146">
        <ele>235</ele>
        <time>2018-09-03T13:45:29Z</time>
      </trkpt>
      <trkpt lat="49.20515" lon="6.8516">
        <ele>235</ele>
        <time>2018-09-03T13:46:29Z</time>
      </trkpt>
      <trkpt lat="49.20493" lon="6.85184">
        <ele>237</ele>
        <time>2018-09-03T13:47:29Z</time>
      </trkpt>
      <trkpt lat="49.20474" lon="6.852">
        <ele>238</ele>
        <time>2018-09-03T13:48:29Z</time>
      </trkpt>
      <trkpt lat="49.20463" lon="6.85214">
        <ele>238</ele>
        <time>2018-09-03T13:49:29Z</time>
      </trkpt>
      <trkpt lat="49.20448" lon="6.85229">
        <ele>239</ele>
        <time>2018-09-03T13:50:29Z</time>
      </trkpt>
      <trkpt lat="49.20433" lon="6.85245">
        <ele>239</ele>
        <time>2018-09-03T13:51:29Z</time>
      </trkpt>
      <trkpt lat="49.20421" lon="6.85267">
        <ele>240</ele>
        <time>2018-09-03T13:52:29Z</time>
      </trkpt>
      <trkpt lat="49.20406" lon="6.85292">
        <ele>239</ele>
        <time>2018-09-03T13:53:29Z</time>
      </trkpt>
      <trkpt lat="49.20389" lon="6.8531">
        <ele>237</ele>
        <time>2018-09-03T13:54:29Z</time>
      </trkpt>
      <trkpt lat="49.20378" lon="6.85327">
        <ele>236</ele>
        <time>2018-09-03T13:55:29Z</time>
      </trkpt>
      <trkpt lat="49.2037" lon="6.85356">
        <ele>235</ele>
        <time>2018-09-03T13:56:29Z</time>
      </trkpt>
      <trkpt lat="49.20358" lon="6.85374">
        <ele>233</ele>
        <time>2018-09-03T13:57:29Z</time>
      </trkpt>
      <trkpt lat="49.20347" lon="6.8539">
        <ele>231</ele>
        <time>2018-09-03T13:58:29Z</time>
      </trkpt>
      <trkpt lat="49.20348" lon="6.85403">
        <ele>232</ele>
        <time>2018-09-03T13:59:29Z</time>
      </trkpt>
      <trkpt lat="49.20345" lon="6.85416">
        <ele>232</ele>
        <time>2018-09-03T14:00:29Z</time>
      </trkpt>
      <trkpt lat="49.20344" lon="6.85429">
        <ele>232</ele>
        <time>2018-09-03T14:01:29Z</time>
      </trkpt>
      <trkpt lat="49.20341" lon="6.85443">
        <ele>232</ele>
        <time>2018-09-03T14:02:29Z</time>
      </trkpt>
      <trkpt lat="49.2033" lon="6.8549">
        <ele>234</ele>
        <time>2018-09-03T14:03:29Z</time>
      </trkpt>
      <trkpt lat="49.20325" lon="6.85508">
        <ele>234</ele>
        <time>2018-09-03T14:04:29Z</time>
      </trkpt>
      <trkpt lat="49.20322" lon="6.85522">
        <ele>233</ele>
        <time>2018-09-03T14:05:29Z</time>
      </trkpt>
      <trkpt lat="49.2032" lon="6.85538">
        <ele>232</ele>
        <time>2018-09-03T14:06:29Z</time>
      </trkpt>
      <trkpt lat="49.20318" lon="6.85553">
        <ele>232</ele>
        <time>2018-09-03T14:07:29Z</time>
      </trkpt>
      <trkpt lat="49.20319" lon="6.8557">
        <ele>231</ele>
        <time>2018-09-03T14:08:29Z</time>
      </trkpt>
      <trkpt lat="49.20321" lon="6.85589">
        <ele>231</ele>
        <time>2018-09-03T14:09:29Z</time>
      </trkpt>
      <trkpt lat="49.20325" lon="6.85623">
        <ele>230</ele>
        <time>2018-09-03T14:10:29Z</time>
      </trkpt>
      <trkpt lat="49.20326" lon="6.8564">
        <ele>230</ele>
        <time>2018-09-03T14:11:29Z</time>
      </trkpt>
      <trkpt lat="49.20326" lon="6.85654">
        <ele>229</ele>
        <time>2018-09-03T14:12:29Z</time>
      </trkpt>
      <trkpt lat="49.20324" lon="6.85675">
        <ele>229</ele>
        <time>2018-09-03T14:13:29Z</time>
      </trkpt>
      <trkpt lat="49.20324" lon="6.85689">
        <ele>229</ele>
        <time>2018-09-03T14:14:29Z</time>
      </trkpt>
      <trkpt lat="49.20327" lon="6.85722">
        <ele>228</ele>
        <time>2018-09-03T14:15:29Z</time>
      </trkpt>
      <trkpt lat="49.20327" lon="6.85734">
        <ele>228</ele>
        <time>2018-09-03T14:16:29Z</time>
      </trkpt>
      <trkpt lat="49.20326" lon="6.85771">
        <ele>228</ele>
        <time>2018-09-03T14:17:29Z</time>
      </trkpt>
      <trkpt lat="49.20325" lon="6.85788">
        <ele>228</ele>
        <time>2018-09-03T14:18:29Z</time>
      </trkpt>
      <trkpt lat="49.20322" lon="6.85798">
        <ele>228</ele>
        <time>2018-09-03T14:19:29Z</time>
      </trkpt>
      <trkpt lat="49.20319" lon="6.85818">
        <ele>228</ele>
        <time>2018-09-03T14:20:29Z</time>
      </trkpt>
      <trkpt lat="49.20318" lon="6.85838">
        <ele>228</ele>
        <time>2018-09-03T14:21:29Z</time>
      </trkpt>
      <trkpt lat="49.20323" lon="6.85854">
        <ele>229</ele>
        <time>2018-09-03T14:22:29Z</time>
      </trkpt>
      <trkpt lat="49.20335" lon="6.8588">
        <ele>230</ele>
        <time>2018-09-03T14:23:29Z</time>
      </trkpt>
      <trkpt lat="49.20341" lon="6.85894">
        <ele>230</ele>
        <time>2018-09-03T14:24:29Z</time>
      </trkpt>
      <trkpt lat="49.20349" lon="6.85905">
        <ele>230</ele>
        <time>2018-09-03T14:25:29Z</time>
      </trkpt>
      <trkpt lat="49.20357" lon="6.85909">
        <ele>230</ele>
        <time>2018-09-03T14:26:29Z</time>
      </trkpt>
      <trkpt lat="49.20367" lon="6.85911">
        <ele>231</ele>
        <time>2018-09-03T14:27:29Z</time>
      </trkpt>
      <trkpt lat="49.20368" lon="6.85924">
        <ele>231</ele>
        <time>2018-09-03T14:28:29Z</time>
      </trkpt>
      <trkpt lat="49.20375" lon="6.85932">
        <ele>231</ele>
        <time>2018-09-03T14:29:29Z</time>
      </trkpt>
      <trkpt lat="49.20382" lon="6.85937">
        <ele>231</ele>
        <time>2018-09-03T14:30:29Z</time>
      </trkpt>
      <trkpt lat="49.2039" lon="6.85955">
        <ele>231</ele>
        <time>2018-09-03T14:31:29Z</time>
      </trkpt>
      <trkpt lat="49.20394" lon="6.85973">
        <ele>230</ele>
        <time>2018-09-03T14:32:29Z</time>
      </trkpt>
      <trkpt lat="49.20397" lon="6.85985">
        <ele>230</ele>
        <time>2018-09-03T14:33:29Z</time>
      </trkpt>
      <trkpt lat="49.20405" lon="6.85994">
        <ele>231</ele>
        <time>2018-09-03T14:34:29Z</time>
      </trkpt>
      <trkpt lat="49.20415" lon="6.86">
        <ele>231</ele>
        <time>2018-09-03T14:35:29Z</time>
      </trkpt>
      <trkpt lat="49.20429" lon="6.86004">
        <ele>231</ele>
        <time>2018-09-03T14:36:29Z</time>
      </trkpt>
      <trkpt lat="49.20439" lon="6.86009">
        <ele>232</ele>
        <time>2018-09-03T14:37:29Z</time>
      </trkpt>
      <trkpt lat="49.20449" lon="6.86012">
        <ele>232</ele>
        <time>2018-09-03T14:38:29Z</time>
      </trkpt>
      <trkpt lat="49.20462" lon="6.86012">
        <ele>232</ele>
        <time>2018-09-03T14:39:29Z</time>
      </trkpt>
      <trkpt lat="49.2047" lon="6.86018">
        <ele>232</ele>
        <time>2018-09-03T14:40:29Z</time>
      </trkpt>
      <trkpt lat="49.2048" lon="6.86037">
        <ele>232</ele>
        <time>2018-09-03T14:41:29Z</time>
      </trkpt>
      <trkpt lat="49.20487" lon="6.86046">
        <ele>232</ele>
        <time>2018-09-03T14:42:29Z</time>
      </trkpt>
      <trkpt lat="49.20495" lon="6.86056">
        <ele>232</ele>
        <time>2018-09-03T14:43:29Z</time>
      </trkpt>
      <trkpt lat="49.20504" lon="6.86063">
        <ele>232</ele>
        <time>2018-09-03T14:44:29Z</time>
      </trkpt>
      <trkpt lat="49.20511" lon="6.86068">
        <ele>231</ele>
        <time>2018-09-03T14:45:29Z</time>
      </trkpt>
      <trkpt lat="49.2052" lon="6.86087">
        <ele>231</ele>
        <time>2018-09-03T14:46:29Z</time>
      </trkpt>
      <trkpt lat="49.20529" lon="6.861">
        <ele>231</ele>
        <time>2018-09-03T14:47:29Z</time>
      </trkpt>
      <trkpt lat="49.20537" lon="6.86107">
        <ele>230</ele>
        <time>2018-09-03T14:48:29Z</time>
      </trkpt>
      <trkpt lat="49.20554" lon="6.86126">
        <ele>230</ele>
        <time>2018-09-03T14:49:29Z</time>
      </trkpt>
      <trkpt lat="49.20564" lon="6.86138">
        <ele>229</ele>
        <time>2018-09-03T14:50:29Z</time>
      </trkpt>
      <trkpt lat="49.20569" lon="6.86149">
        <ele>228</ele>
        <time>2018-09-03T14:51:29Z</time>
      </trkpt>
      <trkpt lat="49.20575" lon="6.86159">
        <ele>228</ele>
        <time>2018-09-03T14:52:29Z</time>
      </trkpt>
      <trkpt lat="49.20584" lon="6.86169">
        <ele>227</ele>
        <time>2018-09-03T14:53:29Z</time>
      </trkpt>
      <trkpt lat="49.20592" lon="6.86181">
        <ele>229</ele>
        <time>2018-09-03T14:54:29Z</time>
      </trkpt>
      <trkpt lat="49.20601" lon="6.86196">
        <ele>232</ele>
        <time>2018-09-03T14:55:29Z</time>
      </trkpt>
      <trkpt lat="49.20614" lon="6.86223">
        <ele>235</ele>
        <time>2018-09-03T14:56:29Z</time>
      </trkpt>
      <trkpt lat="49.20621" lon="6.86238">
        <ele>236</ele>
        <time>2018-09-03T14:57:29Z</time>
      </trkpt>
      <trkpt lat="49.20628" lon="6.86256">
        <ele>237</ele>
        <time>2018-09-03T14:58:29Z</time>
      </trkpt>
      <trkpt lat="49.20635" lon="6.86271">
        <ele>237</ele>
        <time>2018-09-03T14:59:29Z</time>
      </trkpt>
      <trkpt lat="49.20642" lon="6.86285">
        <ele>238</ele>
        <time>2018-09-03T15:00:29Z</time>
      </trkpt>
      <trkpt lat="49.20646" lon="6.86302">
        <ele>237</ele>
        <time>2018-09-03T15:01:29Z</time>
      </trkpt>
      <trkpt lat="49.20654" lon="6.86316">
        <ele>237</ele>
        <time>2018-09-03T15:02:29Z</time>
      </trkpt>
      <trkpt lat="49.20666" lon="6.86326">
        <ele>236</ele>
        <time>2018-09-03T15:03:29Z</time>
      </trkpt>
      <trkpt lat="49.20676" lon="6.86336">
        <ele>236</ele>
        <time>2018-09-03T15:04:29Z</time>
      </trkpt>
      <trkpt lat="49.20684" lon="6.86344">
        <ele>235</ele>
        <time>2018-09-03T15:05:29Z</time>
      </trkpt>
      <trkpt lat="49.20694" lon="6.86356">
        <ele>235</ele>
        <time>2018-09-03T15:06:29Z</time>
      </trkpt>
      <trkpt lat="49.20705" lon="6.86365">
        <ele>234</ele>
        <time>2018-09-03T15:07:29Z</time>
      </trkpt>
      <trkpt lat="49.20716" lon="6.86377">
        <ele>234</ele>
        <time>2018-09-03T15:08:29Z</time>
      </trkpt>
      <trkpt lat="49.20724" lon="6.8639">
        <ele>233</ele>
        <time>2018-09-03T15:09:29Z</time>
      </trkpt>
      <trkpt lat="49.20727" lon="6.86402">
        <ele>232</ele>
        <time>2018-09-03T15:10:29Z</time>
      </trkpt>
      <trkpt lat="49.20732" lon="6.86414">
        <ele>231</ele>
        <time>2018-09-03T15:11:29Z</time>
      </trkpt>
      <trkpt lat="49.20741" lon="6.86426">
        <ele>230</ele>
        <time>2018-09-03T15:12:29Z</time>
      </trkpt>
      <trkpt lat="49.20745" lon="6.86439">
        <ele>230</ele>
        <time>2018-09-03T15:13:29Z</time>
      </trkpt>
      <trkpt lat="49.20751" lon="6.86453">
        <ele>229</ele>
        <time>2018-09-03T15:14:29Z</time>
      </trkpt>
      <trkpt lat="49.20754" lon="6.86472">
        <ele>229</ele>
        <time>2018-09-03T15:15:29Z</time>
      </trkpt>
      <trkpt lat="49.2076" lon="6.86487">
        <ele>230</ele>
        <time>2018-09-03T15:16:29Z</time>
      </trkpt>
      <trkpt lat="49.20764" lon="6.86498">
        <ele>231</ele>
        <time>2018-09-03T15:17:29Z</time>
      </trkpt>
      <trkpt lat="49.20778" lon="6.86526">
        <ele>234</ele>
        <time>2018-09-03T15:18:29Z</time>
      </trkpt>
      <trkpt lat="49.20783" lon="6.86538">
        <ele>236</ele>
        <time>2018-09-03T15:19:29Z</time>
      </trkpt>
      <trkpt lat="49.2079" lon="6.86546">
        <ele>237</ele>
        <time>2018-09-03T15:20:29Z</time>
      </trkpt>
      <trkpt lat="49.20795" lon="6.86557">
        <ele>238</ele>
        <time>2018-09-03T15:21:29Z</time>
      </trkpt>
      <trkpt lat="49.20805" lon="6.86567">
        <ele>240</ele>
        <time>2018-09-03T15:22:29Z</time>
      </trkpt>
      <trkpt lat="49.20811" lon="6.86578">
        <ele>241</ele>
        <time>2018-09-03T15:23:29Z</time>
      </trkpt>
      <trkpt lat="49.20821" lon="6.86588">
        <ele>242</ele>
        <time>2018-09-03T15:24:29Z</time>
      </trkpt>
      <trkpt lat="49.20832" lon="6.86595">
        <ele>244</ele>
        <time>2018-09-03T15:25:29Z</time>
      </trkpt>
      <trkpt lat="49.20843" lon="6.86604">
        <ele>246</ele>
        <time>2018-09-03T15:26:29Z</time>
      </trkpt>
      <trkpt lat="49.20849" lon="6.86611">
        <ele>246</ele>
        <time>2018-09-03T15:27:29Z</time>
      </trkpt>
      <trkpt lat="49.20853" lon="6.86624">
        <ele>247</ele>
        <time>2018-09-03T15:28:29Z</time>
      </trkpt>
      <trkpt lat="49.20865" lon="6.86631">
        <ele>248</ele>
        <time>2018-09-03T15:29:29Z</time>
      </trkpt>
      <trkpt lat="49.20874" lon="6.86638">
        <ele>249</ele>
        <time>2018-09-03T15:30:29Z</time>
      </trkpt>
      <trkpt lat="49.2088" lon="6.86646">
        <ele>250</ele>
        <time>2018-09-03T15:31:29Z</time>
      </trkpt>
      <trkpt lat="49.20886" lon="6.86668">
        <ele>249</ele>
        <time>2018-09-03T15:32:29Z</time>
      </trkpt>
      <trkpt lat="49.20893" lon="6.86677">
        <ele>250</ele>
        <time>2018-09-03T15:33:29Z</time>
      </trkpt>
      <trkpt lat="49.20902" lon="6.86687">
        <ele>251</ele>
        <time>2018-09-03T15:34:29Z</time>
      </trkpt>
      <trkpt lat="49.20909" lon="6.86701">
        <ele>251</ele>
        <time>2018-09-03T15:35:29Z</time>
      </trkpt>
      <trkpt lat="49.20913" lon="6.86715">
        <ele>251</ele>
        <time>2018-09-03T15:36:29Z</time>
      </trkpt>
      <trkpt lat="49.2092" lon="6.86724">
        <ele>251</ele>
        <time>2018-09-03T15:37:29Z</time>
      </trkpt>
      <trkpt lat="49.20928" lon="6.86732">
        <ele>252</ele>
        <time>2018-09-03T15:38:29Z</time>
      </trkpt>
      <trkpt lat="49.20941" lon="6.86741">
        <ele>253</ele>
        <time>2018-09-03T15:39:29Z</time>
      </trkpt>
      <trkpt lat="49.20949" lon="6.8675">
        <ele>254</ele>
        <time>2018-09-03T15:40:29Z</time>
      </trkpt>
      <trkpt lat="49.20956" lon="6.86763">
        <ele>255</ele>
        <time>2018-09-03T15:41:29Z</time>
      </trkpt>
      <trkpt lat="49.20963" lon="6.8678">
        <ele>255</ele>
        <time>2018-09-03T15:42:29Z</time>
      </trkpt>
      <trkpt lat="49.20965" lon="6.86793">
        <ele>255</ele>
        <time>2018-09-03T15:43:29Z</time>
      </trkpt>
      <trkpt lat="49.20976" lon="6.86795">
        <ele>257</ele>
        <time>2018-09-03T15:44:29Z</time>
      </trkpt>
      <trkpt lat="49.20982" lon="6.86786">
        <ele>257</ele>
        <time>2018-09-03T15:45:29Z</time>
      </trkpt>
      <trkpt lat="49.20992" lon="6.86777">
        <ele>258</ele>
        <time>2018-09-03T15:46:29Z</time>
      </trkpt>
      <trkpt lat="49.21006" lon="6.8676">
        <ele>261</ele>
        <time>2018-09-03T15:47:29Z</time>
      </trkpt>
      <trkpt lat="49.21015" lon="6.86746">
        <ele>262</ele>
        <time>2018-09-03T15:48:29Z</time>
      </trkpt>
      <trkpt lat="49.21018" lon="6.86731">
        <ele>263</ele>
        <time>2018-09-03T15:49:29Z</time>
      </trkpt>
      <trkpt lat="49.21017" lon="6.86718">
        <ele>264</ele>
        <time>2018-09-03T15:50:29Z</time>
      </trkpt>
      <trkpt lat="49.21021" lon="6.86707">
        <ele>265</ele>
        <time>2018-09-03T15:51:29Z</time>
      </trkpt>
      <trkpt lat="49.21027" lon="6.86696">
        <ele>266</ele>
        <time>2018-09-03T15:52:29Z</time>
      </trkpt>
      <trkpt lat="49.21033" lon="6.86684">
        <ele>267</ele>
        <time>2018-09-03T15:53:29Z</time>
      </trkpt>
      <trkpt lat="49.21043" lon="6.86674">
        <ele>269</ele>
        <time>2018-09-03T15:54:29Z</time>
      </trkpt>
      <trkpt lat="49.21053" lon="6.86665">
        <ele>271</ele>
        <time>2018-09-03T15:55:29Z</time>
      </trkpt>
      <trkpt lat="49.21061" lon="6.86657">
        <ele>272</ele>
        <time>2018-09-03T15:56:29Z</time>
      </trkpt>
      <trkpt lat="49.21073" lon="6.86644">
        <ele>275</ele>
        <time>2018-09-03T15:57:29Z</time>
      </trkpt>
      <trkpt lat="49.21081" lon="6.86639">
        <ele>276</ele>
        <time>2018-09-03T15:58:29Z</time>
      </trkpt>
      <trkpt lat="49.2109" lon="6.86635">
        <ele>277</ele>
        <time>2018-09-03T15:59:29Z</time>
      </trkpt>
      <trkpt lat="49.21104" lon="6.86634">
        <ele>278</ele>
        <time>2018-09-03T16:00:29Z</time>
      </trkpt>
      <trkpt lat="49.21111" lon="6.86634">
        <ele>279</ele>
        <time>2018-09-03T16:01:29Z</time>
      </trkpt>
      <trkpt lat="49.21119" lon="6.86631">
        <ele>280</ele>
        <time>2018-09-03T16:02:29Z</time>
      </trkpt>
      <trkpt lat="49.21128" lon="6.86632">
        <ele>280</ele>
        <time>2018-09-03T16:03:29Z</time>
      </trkpt>
      <trkpt lat="49.21137" lon="6.86635">
        <ele>281</ele>
        <time>2018-09-03T16:04:29Z</time>
      </trkpt>
      <trkpt lat="49.21149" lon="6.86634">
        <ele>282</ele>
        <time>2018-09-03T16:05:29Z</time>
      </trkpt>
      <trkpt lat="49.21157" lon="6.86631">
        <ele>282</ele>
        <time>2018-09-03T16:06:29Z</time>
      </trkpt>
      <trkpt lat="49.21166" lon="6.86634">
        <ele>283</ele>
        <time>2018-09-03T16:07:29Z</time>
      </trkpt>
      <trkpt lat="49.21172" lon="6.8664">
        <ele>283</ele>
        <time>2018-09-03T16:08:29Z</time>
      </trkpt>
      <trkpt lat="49.21186" lon="6.86651">
        <ele>284</ele>
        <time>2018-09-03T16:09:29Z</time>
      </trkpt>
      <trkpt lat="49.21194" lon="6.86658">
        <ele>285</ele>
        <time>2018-09-03T16:10:29Z</time>
      </trkpt>
      <trkpt lat="49.21201" lon="6.86665">
        <ele>286</ele>
        <time>2018-09-03T16:11:29Z</time>
      </trkpt>
      <trkpt lat="49.2121" lon="6.86672">
        <ele>286</ele>
        <time>2018-09-03T16:12:29Z</time>
      </trkpt>
      <trkpt lat="49.21218" lon="6.86678">
        <ele>287</ele>
        <time>2018-09-03T16:13:29Z</time>
      </trkpt>
      <trkpt lat="49.21226" lon="6.86682">
        <ele>288</ele>
        <time>2018-09-03T16:14:29Z</time>
      </trkpt>
      <trkpt lat="49.21237" lon="6.86691">
        <ele>288</ele>
        <time>2018-09-03T16:15:29Z</time>
      </trkpt>
      <trkpt lat="49.21247" lon="6.86694">
        <ele>289</ele>
        <time>2018-09-03T16:16:29Z</time>
      </trkpt>
      <trkpt lat="49.21257" lon="6.86696">
        <ele>290</ele>
        <time>2018-09-03T16:17:29Z</time>
      </trkpt>
      <trkpt lat="49.21264" lon="6.86707">
        <ele>290</ele>
        <time>2018-09-03T16:18:29Z</time>
      </trkpt>
      <trkpt lat="49.21274" lon="6.86718">
        <ele>290</ele>
        <time>2018-09-03T16:19:29Z</time>
      </trkpt>
      <trkpt lat="49.2128" lon="6.86728">
        <ele>291</ele>
        <time>2018-09-03T16:20:29Z</time>
      </trkpt>
      <trkpt lat="49.21286" lon="6.86738">
        <ele>291</ele>
        <time>2018-09-03T16:21:29Z</time>
      </trkpt>
      <trkpt lat="49.21291" lon="6.86751">
        <ele>291</ele>
        <time>2018-09-03T16:22:29Z</time>
      </trkpt>
      <trkpt lat="49.21294" lon="6.86761">
        <ele>291</ele>
        <time>2018-09-03T16:23:29Z</time>
      </trkpt>
      <trkpt lat="49.213" lon="6.86775">
        <ele>291</ele>
        <time>2018-09-03T16:24:29Z</time>
      </trkpt>
      <trkpt lat="49.21305" lon="6.86789">
        <ele>292</ele>
        <time>2018-09-03T16:25:29Z</time>
      </trkpt>
      <trkpt lat="49.21314" lon="6.86812">
        <ele>292</ele>
        <time>2018-09-03T16:26:29Z</time>
      </trkpt>
      <trkpt lat="49.21319" lon="6.86825">
        <ele>292</ele>
        <time>2018-09-03T16:27:29Z</time>
      </trkpt>
      <trkpt lat="49.21324" lon="6.86836">
        <ele>293</ele>
        <time>2018-09-03T16:28:29Z</time>
      </trkpt>
      <trkpt lat="49.21331" lon="6.86844">
        <ele>294</ele>
        <time>2018-09-03T16:29:29Z</time>
      </trkpt>
      <trkpt lat="49.21336" lon="6.86854">
        <ele>293</ele>
        <time>2018-09-03T16:30:29Z</time>
      </trkpt>
      <trkpt lat="49.21342" lon="6.86864">
        <ele>293</ele>
        <time>2018-09-03T16:31:29Z</time>
      </trkpt>
      <trkpt lat="49.21349" lon="6.86871">
        <ele>293</ele>
        <time>2018-09-03T16:32:29Z</time>
      </trkpt>
      <trkpt lat="49.21356" lon="6.86879">
        <ele>293</ele>
        <time>2018-09-03T16:33:29Z</time>
      </trkpt>
      <trkpt lat="49.21382" lon="6.86894">
        <ele>295</ele>
        <time>2018-09-03T16:34:29Z</time>
      </trkpt>
      <trkpt lat="49.21389" lon="6.86902">
        <ele>295</ele>
        <time>2018-09-03T16:35:29Z</time>
      </trkpt>
      <trkpt lat="49.21393" lon="6.86914">
        <ele>295</ele>
        <time>2018-09-03T16:36:29Z</time>
      </trkpt>
      <trkpt lat="49.21391" lon="6.86926">
        <ele>295</ele>
        <time>2018-09-03T16:37:29Z</time>
      </trkpt>
      <trkpt lat="49.21389" lon="6.8694">
        <ele>294</ele>
        <time>2018-09-03T16:38:29Z</time>
      </trkpt>
      <trkpt lat="49.2138" lon="6.86971">
        <ele>291</ele>
        <time>2018-09-03T16:39:29Z</time>
      </trkpt>
      <trkpt lat="49.21376" lon="6.86984">
        <ele>290</ele>
        <time>2018-09-03T16:40:29Z</time>
      </trkpt>
      <trkpt lat="49.21375" lon="6.86997">
        <ele>290</ele>
        <time>2018-09-03T16:41:29Z</time>
      </trkpt>
      <trkpt lat="49.21372" lon="6.87014">
        <ele>290</ele>
        <time>2018-09-03T16:42:29Z</time>
      </trkpt>
      <trkpt lat="49.21365" lon="6.87025">
        <ele>289</ele>
        <time>2018-09-03T16:43:29Z</time>
      </trkpt>
      <trkpt lat="49.21357" lon="6.87041">
        <ele>289</ele>
        <time>2018-09-03T16:44:29Z</time>
      </trkpt>
      <trkpt lat="49.21351" lon="6.87054">
        <ele>289</ele>
        <time>2018-09-03T16:45:29Z</time>
      </trkpt>
      <trkpt lat="49.21343" lon="6.8706">
        <ele>288</ele>
        <time>2018-09-03T16:46:29Z</time>
      </trkpt>
      <trkpt lat="49.21337" lon="6.87075">
        <ele>289</ele>
        <time>2018-09-03T16:47:29Z</time>
      </trkpt>
      <trkpt lat="49.2133" lon="6.87089">
        <ele>289</ele>
        <time>2018-09-03T16:48:29Z</time>
      </trkpt>
      <trkpt lat="49.21316" lon="6.8712">
        <ele>288</ele>
        <time>2018-09-03T16:49:29Z</time>
      </trkpt>
      <trkpt lat="49.21312" lon="6.87131">
        <ele>288</ele>
        <time>2018-09-03T16:50:29Z</time>
      </trkpt>
      <trkpt lat="49.21294" lon="6.87169">
        <ele>287</ele>
        <time>2018-09-03T16:51:29Z</time>
      </trkpt>
      <trkpt lat="49.21288" lon="6.87183">
        <ele>287</ele>
        <time>2018-09-03T16:52:29Z</time>
      </trkpt>
      <trkpt lat="49.2128" lon="6.87195">
        <ele>286</ele>
        <time>2018-09-03T16:53:29Z</time>
      </trkpt>
      <trkpt lat="49.21275" lon="6.87211">
        <ele>286</ele>
        <time>2018-09-03T16:54:29Z</time>
      </trkpt>
      <trkpt lat="49.21287" lon="6.87236">
        <ele>290</ele>
        <time>2018-09-03T16:55:29Z</time>
      </trkpt>
      <trkpt lat="49.21293" lon="6.87245">
        <ele>291</ele>
        <time>2018-09-03T16:56:29Z</time>
      </trkpt>
      <trkpt lat="49.21297" lon="6.87262">
        <ele>292</ele>
        <time>2018-09-03T16:57:29Z</time>
      </trkpt>
      <trkpt lat="49.21298" lon="6.87275">
        <ele>293</ele>
        <time>2018-09-03T16:58:29Z</time>
      </trkpt>
      <trkpt lat="49.21301" lon="6.87285">
        <ele>294</ele>
        <time>2018-09-03T16:59:29Z</time>
      </trkpt>
      <trkpt lat="49.21307" lon="6.87297">
        <ele>295</ele>
        <time>2018-09-03T17:00:29Z</time>
      </trkpt>
      <trkpt lat="49.21309" lon="6.87311">
        <ele>296</ele>
        <time>2018-09-03T17:01:29Z</time>
      </trkpt>
      <trkpt lat="49.21314" lon="6.87324">
        <ele>297</ele>
        <time>2018-09-03T17:02:29Z</time>
      </trkpt>
      <trkpt lat="49.2132" lon="6.87334">
        <ele>297</ele>
        <time>2018-09-03T17:03:29Z</time>
      </trkpt>
      <trkpt lat="49.21329" lon="6.87333">
        <ele>298</ele>
        <time>2018-09-03T17:04:29Z</time>
      </trkpt>
      <trkpt lat="49.21337" lon="6.87337">
        <ele>298</ele>
        <time>2018-09-03T17:05:29Z</time>
      </trkpt>
      <trkpt lat="49.21346" lon="6.87352">
        <ele>299</ele>
        <time>2018-09-03T17:06:29Z</time>
      </trkpt>
      <trkpt lat="49.21352" lon="6.87361">
        <ele>300</ele>
        <time>2018-09-03T17:07:29Z</time>
      </trkpt>
      <trkpt lat="49.21349" lon="6.87376">
        <ele>300</ele>
        <time>2018-09-03T17:08:29Z</time>
      </trkpt>
      <trkpt lat="49.21341" lon="6.874">
        <ele>300</ele>
        <time>2018-09-03T17:09:29Z</time>
      </trkpt>
      <trkpt lat="49.2134" lon="6.87414">
        <ele>300</ele>
        <time>2018-09-03T17:10:29Z</time>
      </trkpt>
      <trkpt lat="49.21334" lon="6.87427">
        <ele>301</ele>
        <time>2018-09-03T17:11:29Z</time>
      </trkpt>
      <trkpt lat="49.2133" lon="6.87439">
        <ele>301</ele>
        <time>2018-09-03T17:12:29Z</time>
      </trkpt>
      <trkpt lat="49.21326" lon="6.87454">
        <ele>302</ele>
        <time>2018-09-03T17:13:29Z</time>
      </trkpt>
      <trkpt lat="49.21324" lon="6.87467">
        <ele>303</ele>
        <time>2018-09-03T17:14:29Z</time>
      </trkpt>
      <trkpt lat="49.21317" lon="6.87486">
        <ele>304</ele>
        <time>2018-09-03T17:15:29Z</time>
      </trkpt>
      <trkpt lat="49.21313" lon="6.87498">
        <ele>304</ele>
        <time>2018-09-03T17:16:29Z</time>
      </trkpt>
      <trkpt lat="49.21308" lon="6.8751">
        <ele>304</ele>
        <time>2018-09-03T17:17:29Z</time>
      </trkpt>
      <trkpt lat="49.21305" lon="6.87531">
        <ele>304</ele>
        <time>2018-09-03T17:18:29Z</time>
      </trkpt>
      <trkpt lat="49.213" lon="6.87542">
        <ele>304</ele>
        <time>2018-09-03T17:19:29Z</time>
      </trkpt>
      <trkpt lat="49.21301" lon="6.87556">
        <ele>304</ele>
        <time>2018-09-03T17:20:29Z</time>
      </trkpt>
      <trkpt lat="49.2131" lon="6.87558">
        <ele>304</ele>
        <time>2018-09-03T17:21:29Z</time>
      </trkpt>
      <trkpt lat="49.21322" lon="6.87553">
        <ele>305</ele>
        <time>2018-09-03T17:22:29Z</time>
      </trkpt>
      <trkpt lat="49.21334" lon="6.87552">
        <ele>305</ele>
        <time>2018-09-03T17:23:29Z</time>
      </trkpt>
      <trkpt lat="49.21341" lon="6.87545">
        <ele>305</ele>
        <time>2018-09-03T17:24:29Z</time>
      </trkpt>
      <trkpt lat="49.21349" lon="6.87538">
        <ele>305</ele>
        <time>2018-09-03T17:25:29Z</time>
      </trkpt>
      <trkpt lat="49.21359" lon="6.87534">
        <ele>306</ele>
        <time>2018-09-03T17:26:29Z</time>
      </trkpt>
      <trkpt lat="49.21366" lon="6.87528">
        <ele>306</ele>
        <time>2018-09-03T17:27:29Z</time>
      </trkpt>
      <trkpt lat="49.21377" lon="6.87523">
        <ele>306</ele>
        <time>2018-09-03T17:28:29Z</time>
      </trkpt>
      <trkpt lat="49.21388" lon="6.8752">
        <ele>306</ele>
        <time>2018-09-03T17:29:29Z</time>
      </trkpt>
      <trkpt lat="49.21402" lon="6.87516">
        <ele>307</ele>
        <time>2018-09-03T17:30:29Z</time>
      </trkpt>
      <trkpt lat="49.21409" lon="6.87526">
        <ele>307</ele>
        <time>2018-09-03T17:31:29Z</time>
      </trkpt>
      <trkpt lat="49.21413" lon="6.87516">
        <ele>307</ele>
        <time>2018-09-03T17:32:29Z</time>
      </trkpt>
      <trkpt lat="49.21416" lon="6.87499">
        <ele>307</ele>
        <time>2018-09-03T17:33:29Z</time>
      </trkpt>
      <trkpt lat="49.21419" lon="6.87483">
        <ele>307</ele>
        <time>2018-09-03T17:34:29Z</time>
      </trkpt>
      <trkpt lat="49.21429" lon="6.87451">
        <ele>306</ele>
        <time>2018-09-03T17:35:29Z</time>
      </trkpt>
      <trkpt lat="49.21433" lon="6.87434">
        <ele>306</ele>
        <time>2018-09-03T17:36:29Z</time>
      </trkpt>
      <trkpt lat="49.21437" lon="6.87421">
        <ele>306</ele>
        <time>2018-09-03T17:37:29Z</time>
      </trkpt>
      <trkpt lat="49.21441" lon="6.87401">
        <ele>306</ele>
        <time>2018-09-03T17:38:29Z</time>
      </trkpt>
      <trkpt lat="49.21448" lon="6.87388">
        <ele>306</ele>
        <time>2018-09-03T17:39:29Z</time>
      </trkpt>
      <trkpt lat="49.21453" lon="6.87375">
        <ele>306</ele>
        <time>2018-09-03T17:40:29Z</time>
      </trkpt>
      <trkpt lat="49.21457" lon="6.87358">
        <ele>306</ele>
        <time>2018-09-03T17:41:29Z</time>
      </trkpt>
      <trkpt lat="49.21463" lon="6.87342">
        <ele>306</ele>
        <time>2018-09-03T17:42:29Z</time>
      </trkpt>
      <trkpt lat="49.21466" lon="6.8733">
        <ele>306</ele>
        <time>2018-09-03T17:43:29Z</time>
      </trkpt>
      <trkpt lat="49.2147" lon="6.87312">
        <ele>306</ele>
        <time>2018-09-03T17:44:29Z</time>
      </trkpt>
      <trkpt lat="49.21476" lon="6.87302">
        <ele>306</ele>
        <time>2018-09-03T17:45:29Z</time>
      </trkpt>
      <trkpt lat="49.21482" lon="6.87288">
        <ele>306</ele>
        <time>2018-09-03T17:46:29Z</time>
      </trkpt>
      <trkpt lat="49.21488" lon="6.87269">
        <ele>306</ele>
        <time>2018-09-03T17:47:29Z</time>
      </trkpt>
      <trkpt lat="49.21495" lon="6.87253">
        <ele>306</ele>
        <time>2018-09-03T17:48:29Z</time>
      </trkpt>
      <trkpt lat="49.21504" lon="6.8724">
        <ele>306</ele>
        <time>2018-09-03T17:49:29Z</time>
      </trkpt>
      <trkpt lat="49.2152" lon="6.87218">
        <ele>305</ele>
        <time>2018-09-03T17:50:29Z</time>
      </trkpt>
      <trkpt lat="49.21527" lon="6.87207">
        <ele>305</ele>
        <time>2018-09-03T17:51:29Z</time>
      </trkpt>
      <trkpt lat="49.21536" lon="6.87197">
        <ele>305</ele>
        <time>2018-09-03T17:52:29Z</time>
      </trkpt>
      <trkpt lat="49.21543" lon="6.87182">
        <ele>305</ele>
        <time>2018-09-03T17:53:29Z</time>
      </trkpt>
      <trkpt lat="49.2155" lon="6.87174">
        <ele>305</ele>
        <time>2018-09-03T17:54:29Z</time>
      </trkpt>
      <trkpt lat="49.21557" lon="6.87161">
        <ele>305</ele>
        <time>2018-09-03T17:55:29Z</time>
      </trkpt>
      <trkpt lat="49.21569" lon="6.8715">
        <ele>306</ele>
        <time>2018-09-03T17:56:29Z</time>
      </trkpt>
      <trkpt lat="49.2158" lon="6.87147">
        <ele>307</ele>
        <time>2018-09-03T17:57:29Z</time>
      </trkpt>
      <trkpt lat="49.2159" lon="6.87142">
        <ele>307</ele>
        <time>2018-09-03T17:58:29Z</time>
      </trkpt>
      <trkpt lat="49.216" lon="6.87141">
        <ele>307</ele>
        <time>2018-09-03T17:59:29Z</time>
      </trkpt>
      <trkpt lat="49.2161" lon="6.87136">
        <ele>308</ele>
        <time>2018-09-03T18:00:29Z</time>
      </trkpt>
      <trkpt lat="49.21616" lon="6.8713">
        <ele>308</ele>
        <time>2018-09-03T18:01:29Z</time>
      </trkpt>
      <trkpt lat="49.21622" lon="6.87121">
        <ele>308</ele>
        <time>2018-09-03T18:02:29Z</time>
      </trkpt>
      <trkpt lat="49.21628" lon="6.87111">
        <ele>308</ele>
        <time>2018-09-03T18:03:29Z</time>
      </trkpt>
      <trkpt lat="49.21638" lon="6.87105">
        <ele>309</ele>
        <time>2018-09-03T18:04:29Z</time>
      </trkpt>
      <trkpt lat="49.21646" lon="6.87104">
        <ele>309</ele>
        <time>2018-09-03T18:05:29Z</time>
      </trkpt>
      <trkpt lat="49.21655" lon="6.87098">
        <ele>309</ele>
        <time>2018-09-03T18:06:29Z</time>
      </trkpt>
      <trkpt lat="49.21665" lon="6.87094">
        <ele>310</ele>
        <time>2018-09-03T18:07:29Z</time>
      </trkpt>
      <trkpt lat="49.21673" lon="6.87092">
        <ele>310</ele>
        <time>2018-09-03T18:08:29Z</time>
      </trkpt>
      <trkpt lat="49.21681" lon="6.87086">
        <ele>311</ele>
        <time>2018-09-03T18:09:29Z</time>
      </trkpt>
      <trkpt lat="49.21689" lon="6.87083">
        <ele>311</ele>
        <time>2018-09-03T18:10:29Z</time>
      </trkpt>
      <trkpt lat="49.21701" lon="6.87075">
        <ele>312</ele>
        <time>2018-09-03T18:11:29Z</time>
      </trkpt>
      <trkpt lat="49.21708" lon="6.8707">
        <ele>312</ele>
        <time>2018-09-03T18:12:29Z</time>
      </trkpt>
      <trkpt lat="49.2172" lon="6.87066">
        <ele>312</ele>
        <time>2018-09-03T18:13:29Z</time>
      </trkpt>
      <trkpt lat="49.21733" lon="6.87062">
        <ele>313</ele>
        <time>2018-09-03T18:14:29Z</time>
      </trkpt>
      <trkpt lat="49.21756" lon="6.87059">
        <ele>313</ele>
        <time>2018-09-03T18:15:29Z</time>
      </trkpt>
      <trkpt lat="49.21769" lon="6.87065">
        <ele>314</ele>
        <time>2018-09-03T18:16:29Z</time>
      </trkpt>
      <trkpt lat="49.21786" lon="6.87059">
        <ele>313</ele>
        <time>2018-09-03T18:17:29Z</time>
      </trkpt>
      <trkpt lat="49.21805" lon="6.87061">
        <ele>314</ele>
        <time>2018-09-03T18:18:29Z</time>
      </trkpt>
      <trkpt lat="49.21814" lon="6.87055">
        <ele>313</ele>
        <time>2018-09-03T18:19:29Z</time>
      </trkpt>
      <trkpt lat="49.21821" lon="6.87051">
        <ele>313</ele>
        <time>2018-09-03T18:20:29Z</time>
      </trkpt>
      <trkpt lat="49.21835" lon="6.87048">
        <ele>313</ele>
        <time>2018-09-03T18:21:29Z</time>
      </trkpt>
      <trkpt lat="49.21848" lon="6.8705">
        <ele>313</ele>
        <time>2018-09-03T18:22:29Z</time>
      </trkpt>
      <trkpt lat="49.21858" lon="6.87048">
        <ele>313</ele>
        <time>2018-09-03T18:23:29Z</time>
      </trkpt>
      <trkpt lat="49.21861" lon="6.87036">
        <ele>312</ele>
        <time>2018-09-03T18:24:29Z</time>
      </trkpt>
      <trkpt lat="49.21866" lon="6.87024">
        <ele>312</ele>
        <time>2018-09-03T18:25:29Z</time>
      </trkpt>
      <trkpt lat="49.21879" lon="6.87015">
        <ele>311</ele>
        <time>2018-09-03T18:26:29Z</time>
      </trkpt>
      <trkpt lat="49.21887" lon="6.87011">
        <ele>311</ele>
        <time>2018-09-03T18:27:29Z</time>
      </trkpt>
      <trkpt lat="49.21899" lon="6.87002">
        <ele>311</ele>
        <time>2018-09-03T18:28:29Z</time>
      </trkpt>
      <trkpt lat="49.21896" lon="6.86986">
        <ele>310</ele>
        <time>2018-09-03T18:29:29Z</time>
      </trkpt>
      <trkpt lat="49.21899" lon="6.86966">
        <ele>309</ele>
        <time>2018-09-03T18:30:29Z</time>
      </trkpt>
      <trkpt lat="49.21892" lon="6.86952">
        <ele>308</ele>
        <time>2018-09-03T18:31:29Z</time>
      </trkpt>
      <trkpt lat="49.2189" lon="6.86935">
        <ele>307</ele>
        <time>2018-09-03T18:32:29Z</time>
      </trkpt>
      <trkpt lat="49.21895" lon="6.86926">
        <ele>307</ele>
        <time>2018-09-03T18:33:29Z</time>
      </trkpt>
      <trkpt lat="49.21903" lon="6.86902">
        <ele>306</ele>
        <time>2018-09-03T18:34:29Z</time>
      </trkpt>
      <trkpt lat="49.21911" lon="6.8688">
        <ele>304</ele>
        <time>2018-09-03T18:35:29Z</time>
      </trkpt>
      <trkpt lat="49.21913" lon="6.86862">
        <ele>303</ele>
        <time>2018-09-03T18:36:29Z</time>
      </trkpt>
      <trkpt lat="49.21917" lon="6.86845">
        <ele>302</ele>
        <time>2018-09-03T18:37:29Z</time>
      </trkpt>
      <trkpt lat="49.21924" lon="6.86842">
        <ele>302</ele>
        <time>2018-09-03T18:38:29Z</time>
      </trkpt>
      <trkpt lat="49.2193" lon="6.8682">
        <ele>301</ele>
        <time>2018-09-03T18:39:29Z</time>
      </trkpt>
      <trkpt lat="49.21934" lon="6.86808">
        <ele>300</ele>
        <time>2018-09-03T18:40:29Z</time>
      </trkpt>
      <trkpt lat="49.21944" lon="6.86788">
        <ele>300</ele>
        <time>2018-09-03T18:41:29Z</time>
      </trkpt>
      <trkpt lat="49.21946" lon="6.86775">
        <ele>299</ele>
        <time>2018-09-03T18:42:29Z</time>
      </trkpt>
      <trkpt lat="49.21959" lon="6.86761">
        <ele>299</ele>
        <time>2018-09-03T18:43:29Z</time>
      </trkpt>
      <trkpt lat="49.21966" lon="6.86747">
        <ele>299</ele>
        <time>2018-09-03T18:44:29Z</time>
      </trkpt>
      <trkpt lat="49.21962" lon="6.86735">
        <ele>297</ele>
        <time>2018-09-03T18:45:29Z</time>
      </trkpt>
      <trkpt lat="49.21963" lon="6.86719">
        <ele>296</ele>
        <time>2018-09-03T18:46:29Z</time>
      </trkpt>
      <trkpt lat="49.21968" lon="6.86706">
        <ele>296</ele>
        <time>2018-09-03T18:47:29Z</time>
      </trkpt>
      <trkpt lat="49.21974" lon="6.86688">
        <ele>295</ele>
        <time>2018-09-03T18:48:29Z</time>
      </trkpt>
      <trkpt lat="49.21979" lon="6.86683">
        <ele>295</ele>
        <time>2018-09-03T18:49:29Z</time>
      </trkpt>
      <trkpt lat="49.21991" lon="6.8667">
        <ele>295</ele>
        <time>2018-09-03T18:50:29Z</time>
      </trkpt>
      <trkpt lat="49.21998" lon="6.86651">
        <ele>294</ele>
        <time>2018-09-03T18:51:29Z</time>
      </trkpt>
      <trkpt lat="49.21998" lon="6.86633">
        <ele>293</ele>
        <time>2018-09-03T18:52:29Z</time>
      </trkpt>
      <trkpt lat="49.22001" lon="6.86621">
        <ele>292</ele>
        <time>2018-09-03T18:53:29Z</time>
      </trkpt>
      <trkpt lat="49.22008" lon="6.86599">
        <ele>290</ele>
        <time>2018-09-03T18:54:29Z</time>
      </trkpt>
      <trkpt lat="49.22013" lon="6.86592">
        <ele>290</ele>
        <time>2018-09-03T18:55:29Z</time>
      </trkpt>
      <trkpt lat="49.22027" lon="6.86586">
        <ele>291</ele>
        <time>2018-09-03T18:56:29Z</time>
      </trkpt>
      <trkpt lat="49.22034" lon="6.86578">
        <ele>291</ele>
        <time>2018-09-03T18:57:29Z</time>
      </trkpt>
      <trkpt lat="49.22048" lon="6.86563">
        <ele>291</ele>
        <time>2018-09-03T18:58:29Z</time>
      </trkpt>
      <trkpt lat="49.22055" lon="6.86554">
        <ele>291</ele>
        <time>2018-09-03T18:59:29Z</time>
      </trkpt>
      <trkpt lat="49.22065" lon="6.86539">
        <ele>290</ele>
        <time>2018-09-03T19:00:29Z</time>
      </trkpt>
      <trkpt lat="49.22068" lon="6.86527">
        <ele>289</ele>
        <time>2018-09-03T19:01:29Z</time>
      </trkpt>
      <trkpt lat="49.22075" lon="6.86507">
        <ele>286</ele>
        <time>2018-09-03T19:02:29Z</time>
      </trkpt>
      <trkpt lat="49.22085" lon="6.86488">
        <ele>285</ele>
        <time>2018-09-03T19:03:29Z</time>
      </trkpt>
      <trkpt lat="49.22089" lon="6.86475">
        <ele>283</ele>
        <time>2018-09-03T19:04:29Z</time>
      </trkpt>
      <trkpt lat="49.22102" lon="6.86469">
        <ele>282</ele>
        <time>2018-09-03T19:05:29Z</time>
      </trkpt>
      <trkpt lat="49.22109" lon="6.86464">
        <ele>282</ele>
        <time>2018-09-03T19:06:29Z</time>
      </trkpt>
      <trkpt lat="49.22117" lon="6.86454">
        <ele>281</ele>
        <time>2018-09-03T19:07:29Z</time>
      </trkpt>
      <trkpt lat="49.22123" lon="6.86447">
        <ele>280</ele>
        <time>2018-09-03T19:08:29Z</time>
      </trkpt>
      <trkpt lat="49.22135" lon="6.86432">
        <ele>280</ele>
        <time>2018-09-03T19:09:29Z</time>
      </trkpt>
      <trkpt lat="49.22144" lon="6.86416">
        <ele>280</ele>
        <time>2018-09-03T19:10:29Z</time>
      </trkpt>
      <trkpt lat="49.22152" lon="6.86411">
        <ele>280</ele>
        <time>2018-09-03T19:11:29Z</time>
      </trkpt>
      <trkpt lat="49.22161" lon="6.86412">
        <ele>280</ele>
        <time>2018-09-03T19:12:29Z</time>
      </trkpt>
      <trkpt lat="49.22169" lon="6.86413">
        <ele>281</ele>
        <time>2018-09-03T19:13:29Z</time>
      </trkpt>
      <trkpt lat="49.22188" lon="6.86411">
        <ele>284</ele>
        <time>2018-09-03T19:14:29Z</time>
      </trkpt>
      <trkpt lat="49.22199" lon="6.86408">
        <ele>285</ele>
        <time>2018-09-03T19:15:29Z</time>
      </trkpt>
      <trkpt lat="49.22209" lon="6.86404">
        <ele>286</ele>
        <time>2018-09-03T19:16:29Z</time>
      </trkpt>
      <trkpt lat="49.22221" lon="6.86398">
        <ele>287</ele>
        <time>2018-09-03T19:17:29Z</time>
      </trkpt>
      <trkpt lat="49.22229" lon="6.86388">
        <ele>287</ele>
        <time>2018-09-03T19:18:29Z</time>
      </trkpt>
      <trkpt lat="49.2224" lon="6.8637">
        <ele>287</ele>
        <time>2018-09-03T19:19:29Z</time>
      </trkpt>
      <trkpt lat="49.22242" lon="6.86353">
        <ele>285</ele>
        <time>2018-09-03T19:20:29Z</time>
      </trkpt>
      <trkpt lat="49.22247" lon="6.86334">
        <ele>284</ele>
        <time>2018-09-03T19:21:29Z</time>
      </trkpt>
      <trkpt lat="49.22245" lon="6.86322">
        <ele>282</ele>
        <time>2018-09-03T19:22:29Z</time>
      </trkpt>
      <trkpt lat="49.22249" lon="6.86306">
        <ele>280</ele>
        <time>2018-09-03T19:23:29Z</time>
      </trkpt>
      <trkpt lat="49.2225" lon="6.86285">
        <ele>278</ele>
        <time>2018-09-03T19:24:29Z</time>
      </trkpt>
      <trkpt lat="49.22252" lon="6.8627">
        <ele>276</ele>
        <time>2018-09-03T19:25:29Z</time>
      </trkpt>
      <trkpt lat="49.2225" lon="6.86259">
        <ele>274</ele>
        <time>2018-09-03T19:26:29Z</time>
      </trkpt>
      <trkpt lat="49.22253" lon="6.86242">
        <ele>273</ele>
        <time>2018-09-03T19:27:29Z</time>
      </trkpt>
      <trkpt lat="49.22254" lon="6.86215">
        <ele>270</ele>
        <time>2018-09-03T19:28:29Z</time>
      </trkpt>
      <trkpt lat="49.22253" lon="6.86193">
        <ele>268</ele>
        <time>2018-09-03T19:29:29Z</time>
      </trkpt>
      <trkpt lat="49.22256" lon="6.86181">
        <ele>268</ele>
        <time>2018-09-03T19:30:29Z</time>
      </trkpt>
      <trkpt lat="49.22258" lon="6.86164">
        <ele>267</ele>
        <time>2018-09-03T19:31:29Z</time>
      </trkpt>
      <trkpt lat="49.22261" lon="6.86151">
        <ele>267</ele>
        <time>2018-09-03T19:32:29Z</time>
      </trkpt>
      <trkpt lat="49.22268" lon="6.86131">
        <ele>268</ele>
        <time>2018-09-03T19:33:29Z</time>
      </trkpt>
      <trkpt lat="49.22272" lon="6.86116">
        <ele>268</ele>
        <time>2018-09-03T19:34:29Z</time>
      </trkpt>
      <trkpt lat="49.22272" lon="6.86083">
        <ele>268</ele>
        <time>2018-09-03T19:35:29Z</time>
      </trkpt>
      <trkpt lat="49.22266" lon="6.86045">
        <ele>266</ele>
        <time>2018-09-03T19:36:29Z</time>
      </trkpt>
      <trkpt lat="49.22265" lon="6.86023">
        <ele>265</ele>
        <time>2018-09-03T19:37:29Z</time>
      </trkpt>
      <trkpt lat="49.22269" lon="6.8601">
        <ele>265</ele>
        <time>2018-09-03T19:38:29Z</time>
      </trkpt>
      <trkpt lat="49.22273" lon="6.85996">
        <ele>265</ele>
        <time>2018-09-03T19:39:29Z</time>
      </trkpt>
      <trkpt lat="49.2228" lon="6.85984">
        <ele>265</ele>
        <time>2018-09-03T19:40:29Z</time>
      </trkpt>
      <trkpt lat="49.22286" lon="6.85975">
        <ele>264</ele>
        <time>2018-09-03T19:41:29Z</time>
      </trkpt>
      <trkpt lat="49.22288" lon="6.85961">
        <ele>263</ele>
        <time>2018-09-03T19:42:29Z</time>
      </trkpt>
      <trkpt lat="49.22294" lon="6.85935">
        <ele>261</ele>
        <time>2018-09-03T19:43:29Z</time>
      </trkpt>
      <trkpt lat="49.22295" lon="6.8592">
        <ele>259</ele>
        <time>2018-09-03T19:44:29Z</time>
      </trkpt>
      <trkpt lat="49.22295" lon="6.85904">
        <ele>259</ele>
        <time>2018-09-03T19:45:29Z</time>
      </trkpt>
      <trkpt lat="49.22292" lon="6.85887">
        <ele>258</ele>
        <time>2018-09-03T19:46:29Z</time>
      </trkpt>
      <trkpt lat="49.22284" lon="6.85861">
        <ele>257</ele>
        <time>2018-09-03T19:47:29Z</time>
      </trkpt>
      <trkpt lat="49.22279" lon="6.85844">
        <ele>256</ele>
        <time>2018-09-03T19:48:29Z</time>
      </trkpt>
      <trkpt lat="49.22266" lon="6.8581">
        <ele>256</ele>
        <time>2018-09-03T19:49:29Z</time>
      </trkpt>
      <trkpt lat="49.22255" lon="6.85776">
        <ele>257</ele>
        <time>2018-09-03T19:50:29Z</time>
      </trkpt>
      <trkpt lat="49.22248" lon="6.85764">
        <ele>257</ele>
        <time>2018-09-03T19:51:29Z</time>
      </trkpt>
      <trkpt lat="49.22243" lon="6.85754">
        <ele>257</ele>
        <time>2018-09-03T19:52:29Z</time>
      </trkpt>
      <trkpt lat="49.22238" lon="6.8574">
        <ele>258</ele>
        <time>2018-09-03T19:53:29Z</time>
      </trkpt>
      <trkpt lat="49.22229" lon="6.85723">
        <ele>258</ele>
        <time>2018-09-03T19:54:29Z</time>
      </trkpt>
      <trkpt lat="49.22202" lon="6.85684">
        <ele>257</ele>
        <time>2018-09-03T19:55:29Z</time>
      </trkpt>
      <trkpt lat="49.22196" lon="6.85677">
        <ele>256</ele>
        <time>2018-09-03T19:56:29Z</time>
      </trkpt>
      <trkpt lat="49.22188" lon="6.85662">
        <ele>256</ele>
        <time>2018-09-03T19:57:29Z</time>
      </trkpt>
      <trkpt lat="49.2218" lon="6.85647">
        <ele>255</ele>
        <time>2018-09-03T19:58:29Z</time>
      </trkpt>
      <trkpt lat="49.22174" lon="6.85631">
        <ele>254</ele>
        <time>2018-09-03T19:59:29Z</time>
      </trkpt>
      <trkpt lat="49.2217" lon="6.85619">
        <ele>253</ele>
        <time>2018-09-03T20:00:29Z</time>
      </trkpt>
      <trkpt lat="49.22164" lon="6.85601">
        <ele>253</ele>
        <time>2018-09-03T20:01:29Z</time>
      </trkpt>
      <trkpt lat="49.2216" lon="6.85585">
        <ele>253</ele>
        <time>2018-09-03T20:02:29Z</time>
      </trkpt>
      <trkpt lat="49.22155" lon="6.85573">
        <ele>253</ele>
        <time>2018-09-03T20:03:29Z</time>
      </trkpt>
      <trkpt lat="49.22149" lon="6.85558">
        <ele>254</ele>
        <time>2018-09-03T20:04:29Z</time>
      </trkpt>
      <trkpt lat="49.22123" lon="6.85517">
        <ele>252</ele>
        <time>2018-09-03T20:05:29Z</time>
      </trkpt>
      <trkpt lat="49.22118" lon="6.85507">
        <ele>251</ele>
        <time>2018-09-03T20:06:29Z</time>
      </trkpt>
      <trkpt lat="49.22098" lon="6.85458">
        <ele>252</ele>
        <time>2018-09-03T20:07:29Z</time>
      </trkpt>
      <trkpt lat="49.2209" lon="6.85445">
        <ele>251</ele>
        <time>2018-09-03T20:08:29Z</time>
      </trkpt>
      <trkpt lat="49.22084" lon="6.85429">
        <ele>251</ele>
        <time>2018-09-03T20:09:29Z</time>
      </trkpt>
      <trkpt lat="49.22081" lon="6.85414">
        <ele>252</ele>
        <time>2018-09-03T20:10:29Z</time>
      </trkpt>
      <trkpt lat="49.22077" lon="6.85393">
        <ele>251</ele>
        <time>2018-09-03T20:11:29Z</time>
      </trkpt>
      <trkpt lat="49.22072" lon="6.85383">
        <ele>251</ele>
        <time>2018-09-03T20:12:29Z</time>
      </trkpt>
      <trkpt lat="49.22069" lon="6.85373">
        <ele>250</ele>
        <time>2018-09-03T20:13:29Z</time>
      </trkpt>
      <trkpt lat="49.22063" lon="6.8535">
        <ele>250</ele>
        <time>2018-09-03T20:14:29Z</time>
      </trkpt>
      <trkpt lat="49.22062" lon="6.85336">
        <ele>250</ele>
        <time>2018-09-03T20:15:29Z</time>
      </trkpt>
      <trkpt lat="49.2206" lon="6.85323">
        <ele>250</ele>
        <time>2018-09-03T20:16:29Z</time>
      </trkpt>
      <trkpt lat="49.22052" lon="6.85319">
        <ele>249</ele>
        <time>2018-09-03T20:17:29Z</time>
      </trkpt>
      <trkpt lat="49.22043" lon="6.85323">
        <ele>249</ele>
        <time>2018-09-03T20:18:29Z</time>
      </trkpt>
      <trkpt lat="49.22028" lon="6.85333">
        <ele>248</ele>
        <time>2018-09-03T20:19:29Z</time>
      </trkpt>
      <trkpt lat="49.22017" lon="6.85341">
        <ele>247</ele>
        <time>2018-09-03T20:20:29Z</time>
      </trkpt>
      <trkpt lat="49.22015" lon="6.85354">
        <ele>247</ele>
        <time>2018-09-03T20:21:29Z</time>
      </trkpt>
      <trkpt lat="49.22001" lon="6.85358">
        <ele>246</ele>
        <time>2018-09-03T20:22:29Z</time>
      </trkpt>
      <trkpt lat="49.21992" lon="6.85368">
        <ele>246</ele>
        <time>2018-09-03T20:23:29Z</time>
      </trkpt>
      <trkpt lat="49.21982" lon="6.8538">
        <ele>246</ele>
        <time>2018-09-03T20:24:29Z</time>
      </trkpt>
      <trkpt lat="49.21977" lon="6.8539">
        <ele>246</ele>
        <time>2018-09-03T20:25:29Z</time>
      </trkpt>
      <trkpt lat="49.21972" lon="6.85401">
        <ele>247</ele>
        <time>2018-09-03T20:26:29Z</time>
      </trkpt>
      <trkpt lat="49.21956" lon="6.85417">
        <ele>248</ele>
        <time>2018-09-03T20:27:29Z</time>
      </trkpt>
      <trkpt lat="49.2195" lon="6.85427">
        <ele>248</ele>
        <time>2018-09-03T20:28:29Z</time>
      </trkpt>
      <trkpt lat="49.21943" lon="6.85434">
        <ele>248</ele>
        <time>2018-09-03T20:29:29Z</time>
      </trkpt>
      <trkpt lat="49.21932" lon="6.85448">
        <ele>249</ele>
        <time>2018-09-03T20:30:29Z</time>
      </trkpt>
      <trkpt lat="49.21924" lon="6.85454">
        <ele>250</ele>
        <time>2018-09-03T20:31:29Z</time>
      </trkpt>
      <trkpt lat="49.21903" lon="6.85474">
        <ele>249</ele>
        <time>2018-09-03T20:32:29Z</time>
      </trkpt>
      <trkpt lat="49.21895" lon="6.85479">
        <ele>249</ele>
        <time>2018-09-03T20:33:29Z</time>
      </trkpt>
      <trkpt lat="49.2188" lon="6.85496">
        <ele>248</ele>
        <time>2018-09-03T20:34:29Z</time>
      </trkpt>
      <trkpt lat="49.21873" lon="6.85504">
        <ele>248</ele>
        <time>2018-09-03T20:35:29Z</time>
      </trkpt>
      <trkpt lat="49.21867" lon="6.85513">
        <ele>249</ele>
        <time>2018-09-03T20:36:29Z</time>
      </trkpt>
      <trkpt lat="49.2186" lon="6.85521">
        <ele>249</ele>
        <time>2018-09-03T20:37:29Z</time>
      </trkpt>
      <trkpt lat="49.21848" lon="6.85533">
        <ele>250</ele>
        <time>2018-09-03T20:38:29Z</time>
      </trkpt>
      <trkpt lat="49.21842" lon="6.85542">
        <ele>251</ele>
        <time>2018-09-03T20:39:29Z</time>
      </trkpt>
      <trkpt lat="49.21837" lon="6.85555">
        <ele>252</ele>
        <time>2018-09-03T20:40:29Z</time>
      </trkpt>
      <trkpt lat="49.21834" lon="6.85569">
        <ele>254</ele>
        <time>2018-09-03T20:41:29Z</time>
      </trkpt>
      <trkpt lat="49.21831" lon="6.8558">
        <ele>256</ele>
        <time>2018-09-03T20:42:29Z</time>
      </trkpt>
      <trkpt lat="49.21828" lon="6.85594">
        <ele>257</ele>
        <time>2018-09-03T20:43:29Z</time>
      </trkpt>
      <trkpt lat="49.21825" lon="6.85605">
        <ele>259</ele>
        <time>2018-09-03T20:44:29Z</time>
      </trkpt>
      <trkpt lat="49.21823" lon="6.85624">
        <ele>260</ele>
        <time>2018-09-03T20:45:29Z</time>
      </trkpt>
      <trkpt lat="49.21826" lon="6.85636">
        <ele>261</ele>
        <time>2018-09-03T20:46:29Z</time>
      </trkpt>
      <trkpt lat="49.21822" lon="6.85652">
        <ele>262</ele>
        <time>2018-09-03T20:47:29Z</time>
      </trkpt>
      <trkpt lat="49.21816" lon="6.85662">
        <ele>263</ele>
        <time>2018-09-03T20:48:29Z</time>
      </trkpt>
      <trkpt lat="49.21814" lon="6.85675">
        <ele>264</ele>
        <time>2018-09-03T20:49:29Z</time>
      </trkpt>
      <trkpt lat="49.21808" lon="6.85686">
        <ele>265</ele>
        <time>2018-09-03T20:50:29Z</time>
      </trkpt>
      <trkpt lat="49.21803" lon="6.85694">
        <ele>266</ele>
        <time>2018-09-03T20:51:29Z</time>
      </trkpt>
      <trkpt lat="49.21797" lon="6.85707">
        <ele>267</ele>
        <time>2018-09-03T20:52:29Z</time>
      </trkpt>
      <trkpt lat="49.21791" lon="6.85716">
        <ele>268</ele>
        <time>2018-09-03T20:53:29Z</time>
      </trkpt>
      <trkpt lat="49.21785" lon="6.85724">
        <ele>269</ele>
        <time>2018-09-03T20:54:29Z</time>
      </trkpt>
      <trkpt lat="49.21777" lon="6.85732">
        <ele>270</ele>
        <time>2018-09-03T20:55:29Z</time>
      </trkpt>
      <trkpt lat="49.21768" lon="6.85739">
        <ele>271</ele>
        <time>2018-09-03T20:56:29Z</time>
      </trkpt>
      <trkpt lat="49.21764" lon="6.85749">
        <ele>272</ele>
        <time>2018-09-03T20:57:29Z</time>
      </trkpt>
      <trkpt lat="49.21755" lon="6.8576">
        <ele>273</ele>
        <time>2018-09-03T20:58:29Z</time>
      </trkpt>
      <trkpt lat="49.21747" lon="6.85766">
        <ele>274</ele>
        <time>2018-09-03T20:59:29Z</time>
      </trkpt>
      <trkpt lat="49.21738" lon="6.85774">
        <ele>274</ele>
        <time>2018-09-03T21:00:29Z</time>
      </trkpt>
      <trkpt lat="49.21729" lon="6.85773">
        <ele>273</ele>
        <time>2018-09-03T21:01:29Z</time>
      </trkpt>
      <trkpt lat="49.21727" lon="6.8576">
        <ele>273</ele>
        <time>2018-09-03T21:02:29Z</time>
      </trkpt>
      <trkpt lat="49.21722" lon="6.85747">
        <ele>272</ele>
        <time>2018-09-03T21:03:29Z</time>
      </trkpt>
      <trkpt lat="49.21721" lon="6.85737">
        <ele>272</ele>
        <time>2018-09-03T21:04:29Z</time>
      </trkpt>
      <trkpt lat="49.21717" lon="6.85725">
        <ele>271</ele>
        <time>2018-09-03T21:05:29Z</time>
      </trkpt>
      <trkpt lat="49.21708" lon="6.85711">
        <ele>271</ele>
        <time>2018-09-03T21:06:29Z</time>
      </trkpt>
      <trkpt lat="49.21702" lon="6.85696">
        <ele>270</ele>
        <time>2018-09-03T21:07:29Z</time>
      </trkpt>
      <trkpt lat="49.21697" lon="6.85681">
        <ele>270</ele>
        <time>2018-09-03T21:08:29Z</time>
      </trkpt>
      <trkpt lat="49.21692" lon="6.85665">
        <ele>269</ele>
        <time>2018-09-03T21:09:29Z</time>
      </trkpt>
      <trkpt lat="49.21685" lon="6.85652">
        <ele>269</ele>
        <time>2018-09-03T21:10:29Z</time>
      </trkpt>
      <trkpt lat="49.21679" lon="6.85637">
        <ele>269</ele>
        <time>2018-09-03T21:11:29Z</time>
      </trkpt>
      <trkpt lat="49.21675" lon="6.85619">
        <ele>269</ele>
        <time>2018-09-03T21:12:29Z</time>
      </trkpt>
      <trkpt lat="49.21668" lon="6.85604">
        <ele>270</ele>
        <time>2018-09-03T21:13:29Z</time>
      </trkpt>
      <trkpt lat="49.21664" lon="6.85592">
        <ele>270</ele>
        <time>2018-09-03T21:14:29Z</time>
      </trkpt>
      <trkpt lat="49.21656" lon="6.85587">
        <ele>269</ele>
        <time>2018-09-03T21:15:29Z</time>
      </trkpt>
      <trkpt lat="49.21646" lon="6.85577">
        <ele>268</ele>
        <time>2018-09-03T21:16:29Z</time>
      </trkpt>
      <trkpt lat="49.2164" lon="6.85586">
        <ele>268</ele>
        <time>2018-09-03T21:17:29Z</time>
      </trkpt>
      <trkpt lat="49.2163" lon="6.85597">
        <ele>267</ele>
        <time>2018-09-03T21:18:29Z</time>
      </trkpt>
      <trkpt lat="49.21626" lon="6.85609">
        <ele>266</ele>
        <time>2018-09-03T21:19:29Z</time>
      </trkpt>
      <trkpt lat="49.21616" lon="6.85617">
        <ele>266</ele>
        <time>2018-09-03T21:20:29Z</time>
      </trkpt>
      <trkpt lat="49.21608" lon="6.85622">
        <ele>265</ele>
        <time>2018-09-03T21:21:29Z</time>
      </trkpt>
      <trkpt lat="49.21597" lon="6.85631">
        <ele>264</ele>
        <time>2018-09-03T21:22:29Z</time>
      </trkpt>
      <trkpt lat="49.21587" lon="6.85634">
        <ele>263</ele>
        <time>2018-09-03T21:23:29Z</time>
      </trkpt>
      <trkpt lat="49.21579" lon="6.85638">
        <ele>263</ele>
        <time>2018-09-03T21:24:29Z</time>
      </trkpt>
      <trkpt lat="49.21568" lon="6.85641">
        <ele>262</ele>
        <time>2018-09-03T21:25:29Z</time>
      </trkpt>
      <trkpt lat="49.21554" lon="6.85653">
        <ele>261</ele>
        <time>2018-09-03T21:26:29Z</time>
      </trkpt>
      <trkpt lat="49.21544" lon="6.85659">
        <ele>261</ele>
        <time>2018-09-03T21:27:29Z</time>
      </trkpt>
      <trkpt lat="49.21536" lon="6.85661">
        <ele>260</ele>
        <time>2018-09-03T21:28:29Z</time>
      </trkpt>
      <trkpt lat="49.21527" lon="6.85668">
        <ele>260</ele>
        <time>2018-09-03T21:29:29Z</time>
      </trkpt>
      <trkpt lat="49.21516" lon="6.85673">
        <ele>259</ele>
        <time>2018-09-03T21:30:29Z</time>
      </trkpt>
      <trkpt lat="49.21492" lon="6.85695">
        <ele>256</ele>
        <time>2018-09-03T21:31:29Z</time>
      </trkpt>
      <trkpt lat="49.21486" lon="6.85702">
        <ele>255</ele>
        <time>2018-09-03T21:32:29Z</time>
      </trkpt>
      <trkpt lat="49.21473" lon="6.85713">
        <ele>253</ele>
        <time>2018-09-03T21:33:29Z</time>
      </trkpt>
      <trkpt lat="49.21465" lon="6.85719">
        <ele>251</ele>
        <time>2018-09-03T21:34:29Z</time>
      </trkpt>
      <trkpt lat="49.21452" lon="6.85713">
        <ele>251</ele>
        <time>2018-09-03T21:35:29Z</time>
      </trkpt>
      <trkpt lat="49.21444" lon="6.85696">
        <ele>251</ele>
        <time>2018-09-03T21:36:29Z</time>
      </trkpt>
      <trkpt lat="49.21436" lon="6.85684">
        <ele>251</ele>
        <time>2018-09-03T21:37:29Z</time>
      </trkpt>
      <trkpt lat="49.21432" lon="6.8567">
        <ele>251</ele>
        <time>2018-09-03T21:38:29Z</time>
      </trkpt>
      <trkpt lat="49.21422" lon="6.85657">
        <ele>251</ele>
        <time>2018-09-03T21:39:29Z</time>
      </trkpt>
      <trkpt lat="49.21406" lon="6.85636">
        <ele>250</ele>
        <time>2018-09-03T21:40:29Z</time>
      </trkpt>
      <trkpt lat="49.21394" lon="6.85625">
        <ele>249</ele>
        <time>2018-09-03T21:41:29Z</time>
      </trkpt>
      <trkpt lat="49.21386" lon="6.85615">
        <ele>249</ele>
        <time>2018-09-03T21:42:29Z</time>
      </trkpt>
      <trkpt lat="49.2138" lon="6.85601">
        <ele>248</ele>
        <time>2018-09-03T21:43:29Z</time>
      </trkpt>
      <trkpt lat="49.21372" lon="6.85587">
        <ele>248</ele>
        <time>2018-09-03T21:44:29Z</time>
      </trkpt>
      <trkpt lat="49.2136" lon="6.85578">
        <ele>246</ele>
        <time>2018-09-03T21:45:29Z</time>
      </trkpt>
      <trkpt lat="49.21354" lon="6.85568">
        <ele>245</ele>
        <time>2018-09-03T21:46:29Z</time>
      </trkpt>
      <trkpt lat="49.21345" lon="6.85555">
        <ele>243</ele>
        <time>2018-09-03T21:47:29Z</time>
      </trkpt>
      <trkpt lat="49.21328" lon="6.85541">
        <ele>241</ele>
        <time>2018-09-03T21:48:29Z</time>
      </trkpt>
      <trkpt lat="49.21318" lon="6.85533">
        <ele>240</ele>
        <time>2018-09-03T21:49:29Z</time>
      </trkpt>
      <trkpt lat="49.21312" lon="6.85524">
        <ele>239</ele>
        <time>2018-09-03T21:50:29Z</time>
      </trkpt>
      <trkpt lat="49.21304" lon="6.85511">
        <ele>237</ele>
        <time>2018-09-03T21:51:29Z</time>
      </trkpt>
      <trkpt lat="49.21299" lon="6.85501">
        <ele>236</ele>
        <time>2018-09-03T21:52:29Z</time>
      </trkpt>
      <trkpt lat="49.21293" lon="6.85493">
        <ele>235</ele>
        <time>2018-09-03T21:53:29Z</time>
      </trkpt>
      <trkpt lat="49.21287" lon="6.85482">
        <ele>234</ele>
        <time>2018-09-03T21:54:29Z</time>
      </trkpt>
      <trkpt lat="49.21283" lon="6.8547">
        <ele>234</ele>
        <time>2018-09-03T21:55:29Z</time>
      </trkpt>
      <trkpt lat="49.21277" lon="6.85459">
        <ele>233</ele>
        <time>2018-09-03T21:56:29Z</time>
      </trkpt>
      <trkpt lat="49.21269" lon="6.85462">
        <ele>233</ele>
        <time>2018-09-03T21:57:29Z</time>
      </trkpt>
      <trkpt lat="49.21263" lon="6.85456">
        <ele>232</ele>
        <time>2018-09-03T21:58:29Z</time>
      </trkpt>
      <trkpt lat="49.21258" lon="6.85447">
        <ele>231</ele>
        <time>2018-09-03T21:59:29Z</time>
      </trkpt>
      <trkpt lat="49.21253" lon="6.85435">
        <ele>231</ele>
        <time>2018-09-03T22:00:29Z</time>
      </trkpt>
      <trkpt lat="49.21244" lon="6.85423">
        <ele>230</ele>
        <time>2018-09-03T22:01:29Z</time>
      </trkpt>
      <trkpt lat="49.21231" lon="6.85413">
        <ele>230</ele>
        <time>2018-09-03T22:02:29Z</time>
      </trkpt>
      <trkpt lat="49.21223" lon="6.85401">
        <ele>229</ele>
        <time>2018-09-03T22:03:29Z</time>
      </trkpt>
      <trkpt lat="49.21216" lon="6.85388">
        <ele>229</ele>
        <time>2018-09-03T22:04:29Z</time>
      </trkpt>
      <trkpt lat="49.21209" lon="6.85378">
        <ele>229</ele>
        <time>2018-09-03T22:05:29Z</time>
      </trkpt>
      <trkpt lat="49.21203" lon="6.85364">
        <ele>230</ele>
        <time>2018-09-03T22:06:29Z</time>
      </trkpt>
      <trkpt lat="49.21196" lon="6.85354">
        <ele>230</ele>
        <time>2018-09-03T22:07:29Z</time>
      </trkpt>
      <trkpt lat="49.21192" lon="6.85334">
        <ele>230</ele>
        <time>2018-09-03T22:08:29Z</time>
      </trkpt>
      <trkpt lat="49.21188" lon="6.85316">
        <ele>230</ele>
        <time>2018-09-03T22:09:29Z</time>
      </trkpt>
      <trkpt lat="49.21171" lon="6.85281">
        <ele>229</ele>
        <time>2018-09-03T22:10:29Z</time>
      </trkpt>
      <trkpt lat="49.21166" lon="6.8527">
        <ele>229</ele>
        <time>2018-09-03T22:11:29Z</time>
      </trkpt>
      <trkpt lat="49.2116" lon="6.85261">
        <ele>228</ele>
        <time>2018-09-03T22:12:29Z</time>
      </trkpt>
      <trkpt lat="49.21154" lon="6.85248">
        <ele>228</ele>
        <time>2018-09-03T22:13:29Z</time>
      </trkpt>
      <trkpt lat="49.21187" lon="6.85192">
        <ele>226</ele>
        <time>2018-09-03T22:14:29Z</time>
      </trkpt>
      <trkpt lat="49.21178" lon="6.852">
        <ele>226</ele>
        <time>2018-09-03T22:15:29Z</time>
      </trkpt>
      <trkpt lat="49.21156" lon="6.85223">
        <ele>227</ele>
        <time>2018-09-03T22:16:29Z</time>
      </trkpt>
      <trkpt lat="49.2115" lon="6.85235">
        <ele>227</ele>
        <time>2018-09-03T22:17:29Z</time>
      </trkpt>
      <trkpt lat="49.2114" lon="6.8522">
        <ele>227</ele>
        <time>2018-09-03T22:18:29Z</time>
      </trkpt>
      <trkpt lat="49.21132" lon="6.85206">
        <ele>227</ele>
        <time>2018-09-03T22:19:29Z</time>
      </trkpt>
      <trkpt lat="49.21126" lon="6.85196">
        <ele>227</ele>
        <time>2018-09-03T22:20:29Z</time>
      </trkpt>
      <trkpt lat="49.21124" lon="6.85185">
        <ele>226</ele>
        <time>2018-09-03T22:21:29Z</time>
      </trkpt>
      <trkpt lat="49.21115" lon="6.85167">
        <ele>226</ele>
        <time>2018-09-03T22:22:29Z</time>
      </trkpt>
      <trkpt lat="49.21112" lon="6.85155">
        <ele>226</ele>
        <time>2018-09-03T22:23:29Z</time>
      </trkpt>
      <trkpt lat="49.21103" lon="6.85141">
        <ele>226</ele>
        <time>2018-09-03T22:24:29Z</time>
      </trkpt>
      <trkpt lat="49.211" lon="6.85129">
        <ele>226</ele>
        <time>2018-09-03T22:25:29Z</time>
      </trkpt>
      <trkpt lat="49.21097" lon="6.85111">
        <ele>226</ele>
        <time>2018-09-03T22:26:29Z</time>
      </trkpt>
      <trkpt lat="49.21092" lon="6.85074">
        <ele>225</ele>
        <time>2018-09-03T22:27:29Z</time>
      </trkpt>
      <trkpt lat="49.21088" lon="6.85052">
        <ele>224</ele>
        <time>2018-09-03T22:28:29Z</time>
      </trkpt>
      <trkpt lat="49.21087" lon="6.85032">
        <ele>223</ele>
        <time>2018-09-03T22:29:29Z</time>
      </trkpt>
      <trkpt lat="49.21088" lon="6.85016">
        <ele>222</ele>
        <time>2018-09-03T22:30:29Z</time>
      </trkpt>
      <trkpt lat="49.2109" lon="6.84996">
        <ele>221</ele>
        <time>2018-09-03T22:31:29Z</time>
      </trkpt>
      <trkpt lat="49.211" lon="6.84996">
        <ele>222</ele>
        <time>2018-09-03T22:32:29Z</time>
      </trkpt>
      <trkpt lat="49.21107" lon="6.84994">
        <ele>222</ele>
        <time>2018-09-03T22:33:29Z</time>
      </trkpt>
      <trkpt lat="49.21115" lon="6.84988">
        <ele>222</ele>
        <time>2018-09-03T22:34:29Z</time>
      </trkpt>
      <trkpt lat="49.21122" lon="6.84983">
        <ele>223</ele>
        <time>2018-09-03T22:35:29Z</time>
      </trkpt>
      <trkpt lat="49.21148" lon="6.84958">
        <ele>225</ele>
        <time>2018-09-03T22:36:29Z</time>
      </trkpt>
      <trkpt lat="49.21156" lon="6.84955">
        <ele>226</ele>
        <time>2018-09-03T22:37:29Z</time>
      </trkpt>
      <trkpt lat="49.2117" lon="6.84938">
        <ele>227</ele>
        <time>2018-09-03T22:38:29Z</time>
      </trkpt>
      <trkpt lat="49.21179" lon="6.84936">
        <ele>228</ele>
        <time>2018-09-03T22:39:29Z</time>
      </trkpt>
      <trkpt lat="49.21186" lon="6.84928">
        <ele>228</ele>
        <time>2018-09-03T22:40:29Z</time>
      </trkpt>
      <trkpt lat="49.21194" lon="6.84917">
        <ele>229</ele>
        <time>2018-09-03T22:41:29Z</time>
      </trkpt>
      <trkpt lat="49.21201" lon="6.8491">
        <ele>230</ele>
        <time>2018-09-03T22:42:29Z</time>
      </trkpt>
      <trkpt lat="49.21211" lon="6.84905">
        <ele>231</ele>
        <time>2018-09-03T22:43:29Z</time>
      </trkpt>
      <trkpt lat="49.21219" lon="6.84899">
        <ele>232</ele>
        <time>2018-09-03T22:44:29Z</time>
      </trkpt>
      <trkpt lat="49.21226" lon="6.84892">
        <ele>233</ele>
        <time>2018-09-03T22:45:29Z</time>
      </trkpt>
      <trkpt lat="49.21234" lon="6.84886">
        <ele>234</ele>
        <time>2018-09-03T22:46:29Z</time>
      </trkpt>
      <trkpt lat="49.21241" lon="6.84879">
        <ele>235</ele>
        <time>2018-09-03T22:47:29Z</time>
      </trkpt>
      <trkpt lat="49.21258" lon="6.84868">
        <ele>238</ele>
        <time>2018-09-03T22:48:29Z</time>
      </trkpt>
      <trkpt lat="49.21268" lon="6.84861">
        <ele>239</ele>
        <time>2018-09-03T22:49:29Z</time>
      </trkpt>
      <trkpt lat="49.21276" lon="6.84856">
        <ele>240</ele>
        <time>2018-09-03T22:50:29Z</time>
      </trkpt>
      <trkpt lat="49.21284" lon="6.8485">
        <ele>241</ele>
        <time>2018-09-03T22:51:29Z</time>
      </trkpt>
      <trkpt lat="49.21302" lon="6.84838">
        <ele>243</ele>
        <time>2018-09-03T22:52:29Z</time>
      </trkpt>
      <trkpt lat="49.2131" lon="6.84834">
        <ele>244</ele>
        <time>2018-09-03T22:53:29Z</time>
      </trkpt>
      <trkpt lat="49.21317" lon="6.84823">
        <ele>244</ele>
        <time>2018-09-03T22:54:29Z</time>
      </trkpt>
      <trkpt lat="49.21324" lon="6.84816">
        <ele>245</ele>
        <time>2018-09-03T22:55:29Z</time>
      </trkpt>
      <trkpt lat="49.21332" lon="6.84813">
        <ele>246</ele>
        <time>2018-09-03T22:56:29Z</time>
      </trkpt>
      <trkpt lat="49.21333" lon="6.84801">
        <ele>246</ele>
        <time>2018-09-03T22:57:29Z</time>
      </trkpt>
      <trkpt lat="49.21333" lon="6.84781">
        <ele>247</ele>
        <time>2018-09-03T22:58:29Z</time>
      </trkpt>
      <trkpt lat="49.2133" lon="6.84761">
        <ele>247</ele>
        <time>2018-09-03T22:59:29Z</time>
      </trkpt>
      <trkpt lat="49.21329" lon="6.84728">
        <ele>248</ele>
        <time>2018-09-03T23:00:29Z</time>
      </trkpt>
      <trkpt lat="49.21327" lon="6.84712">
        <ele>248</ele>
        <time>2018-09-03T23:01:29Z</time>
      </trkpt>
      <trkpt lat="49.21328" lon="6.84682">
        <ele>248</ele>
        <time>2018-09-03T23:02:29Z</time>
      </trkpt>
      <trkpt lat="49.21328" lon="6.84663">
        <ele>248</ele>
        <time>2018-09-03T23:03:29Z</time>
      </trkpt>
      <trkpt lat="49.21326" lon="6.84649">
        <ele>248</ele>
        <time>2018-09-03T23:04:29Z</time>
      </trkpt>
      <trkpt lat="49.21327" lon="6.84636">
        <ele>248</ele>
        <time>2018-09-03T23:05:29Z</time>
      </trkpt>
      <trkpt lat="49.21332" lon="6.84622">
        <ele>248</ele>
        <time>2018-09-03T23:06:29Z</time>
      </trkpt>
      <trkpt lat="49.2134" lon="6.84606">
        <ele>247</ele>
        <time>2018-09-03T23:07:29Z</time>
      </trkpt>
      <trkpt lat="49.21345" lon="6.8458">
        <ele>246</ele>
        <time>2018-09-03T23:08:29Z</time>
      </trkpt>
      <trkpt lat="49.21346" lon="6.84562">
        <ele>246</ele>
        <time>2018-09-03T23:09:29Z</time>
      </trkpt>
      <trkpt lat="49.21353" lon="6.84545">
        <ele>245</ele>
        <time>2018-09-03T23:10:29Z</time>
      </trkpt>
      <trkpt lat="49.21361" lon="6.84524">
        <ele>244</ele>
        <time>2018-09-03T23:11:29Z</time>
      </trkpt>
      <trkpt lat="49.21365" lon="6.84513">
        <ele>243</ele>
        <time>2018-09-03T23:12:29Z</time>
      </trkpt>
      <trkpt lat="49.21369" lon="6.84494">
        <ele>243</ele>
        <time>2018-09-03T23:13:29Z</time>
      </trkpt>
      <trkpt lat="49.21369" lon="6.84481">
        <ele>242</ele>
        <time>2018-09-03T23:14:29Z</time>
      </trkpt>
      <trkpt lat="49.21373" lon="6.84463">
        <ele>240</ele>
        <time>2018-09-03T23:15:29Z</time>
      </trkpt>
      <trkpt lat="49.21377" lon="6.84476">
        <ele>240</ele>
        <time>2018-09-03T23:16:29Z</time>
      </trkpt>
      <trkpt lat="49.2138" lon="6.84492">
        <ele>241</ele>
        <time>2018-09-03T23:17:29Z</time>
      </trkpt>
      <trkpt lat="49.21382" lon="6.84509">
        <ele>241</ele>
        <time>2018-09-03T23:18:29Z</time>
      </trkpt>
      <trkpt lat="49.21379" lon="6.84522">
        <ele>241</ele>
        <time>2018-09-03T23:19:29Z</time>
      </trkpt>
      <trkpt lat="49.21377" lon="6.84548">
        <ele>242</ele>
        <time>2018-09-03T23:20:29Z</time>
      </trkpt>
      <trkpt lat="49.21377" lon="6.84561">
        <ele>242</ele>
        <time>2018-09-03T23:21:29Z</time>
      </trkpt>
      <trkpt lat="49.21377" lon="6.84575">
        <ele>242</ele>
        <time>2018-09-03T23:22:29Z</time>
      </trkpt>
      <trkpt lat="49.21378" lon="6.84566">
        <ele>242</ele>
        <time>2018-09-03T23:23:29Z</time>
      </trkpt>
      <trkpt lat="49.21382" lon="6.84546">
        <ele>241</ele>
        <time>2018-09-03T23:24:29Z</time>
      </trkpt>
      <trkpt lat="49.21389" lon="6.84554">
        <ele>240</ele>
        <time>2018-09-03T23:25:29Z</time>
      </trkpt>
      <trkpt lat="49.21392" lon="6.8457">
        <ele>240</ele>
        <time>2018-09-03T23:26:29Z</time>
      </trkpt>
      <trkpt lat="49.21397" lon="6.84581">
        <ele>239</ele>
        <time>2018-09-03T23:27:29Z</time>
      </trkpt>
      <trkpt lat="49.21405" lon="6.84579">
        <ele>238</ele>
        <time>2018-09-03T23:28:29Z</time>
      </trkpt>
      <trkpt lat="49.21416" lon="6.84582">
        <ele>236</ele>
        <time>2018-09-03T23:29:29Z</time>
      </trkpt>
      <trkpt lat="49.21439" lon="6.84561">
        <ele>235</ele>
        <time>2018-09-03T23:30:29Z</time>
      </trkpt>
      <trkpt lat="49.21445" lon="6.8455">
        <ele>235</ele>
        <time>2018-09-03T23:31:29Z</time>
      </trkpt>
      <trkpt lat="49.21456" lon="6.84522">
        <ele>234</ele>
        <time>2018-09-03T23:32:29Z</time>
      </trkpt>
      <trkpt lat="49.21461" lon="6.84501">
        <ele>234</ele>
        <time>2018-09-03T23:33:29Z</time>
      </trkpt>
      <trkpt lat="49.21467" lon="6.8449">
        <ele>232</ele>
        <time>2018-09-03T23:34:29Z</time>
      </trkpt>
      <trkpt lat="49.21472" lon="6.8448">
        <ele>231</ele>
        <time>2018-09-03T23:35:29Z</time>
      </trkpt>
      <trkpt lat="49.2148" lon="6.84472">
        <ele>229</ele>
        <time>2018-09-03T23:36:29Z</time>
      </trkpt>
      <trkpt lat="49.21491" lon="6.84463">
        <ele>226</ele>
        <time>2018-09-03T23:37:29Z</time>
      </trkpt>
      <trkpt lat="49.21516" lon="6.84453">
        <ele>222</ele>
        <time>2018-09-03T23:38:29Z</time>
      </trkpt>
      <trkpt lat="49.21524" lon="6.84455">
        <ele>222</ele>
        <time>2018-09-03T23:39:29Z</time>
      </trkpt>
      <trkpt lat="49.2153" lon="6.84465">
        <ele>223</ele>
        <time>2018-09-03T23:40:29Z</time>
      </trkpt>
      <trkpt lat="49.21534" lon="6.84476">
        <ele>223</ele>
        <time>2018-09-03T23:41:29Z</time>
      </trkpt>
      <trkpt lat="49.21544" lon="6.845">
        <ele>225</ele>
        <time>2018-09-03T23:42:29Z</time>
      </trkpt>
      <trkpt lat="49.21557" lon="6.84529">
        <ele>224</ele>
        <time>2018-09-03T23:43:29Z</time>
      </trkpt>
      <trkpt lat="49.21565" lon="6.84546">
        <ele>224</ele>
        <time>2018-09-03T23:44:29Z</time>
      </trkpt>
      <trkpt lat="49.21569" lon="6.84557">
        <ele>224</ele>
        <time>2018-09-03T23:45:29Z</time>
      </trkpt>
      <trkpt lat="49.21573" lon="6.84571">
        <ele>224</ele>
        <time>2018-09-03T23:46:29Z</time>
      </trkpt>
      <trkpt lat="49.2159" lon="6.84611">
        <ele>224</ele>
        <time>2018-09-03T23:47:29Z</time>
      </trkpt>
      <trkpt lat="49.21597" lon="6.84624">
        <ele>224</ele>
        <time>2018-09-03T23:48:29Z</time>
      </trkpt>
      <trkpt lat="49.21601" lon="6.84636">
        <ele>224</ele>
        <time>2018-09-03T23:49:29Z</time>
      </trkpt>
      <trkpt lat="49.21604" lon="6.8465">
        <ele>224</ele>
        <time>2018-09-03T23:50:29Z</time>
      </trkpt>
      <trkpt lat="49.21613" lon="6.84668">
        <ele>223</ele>
        <time>2018-09-03T23:51:29Z</time>
      </trkpt>
      <trkpt lat="49.21617" lon="6.84683">
        <ele>224</ele>
        <time>2018-09-03T23:52:29Z</time>
      </trkpt>
      <trkpt lat="49.21619" lon="6.847">
        <ele>224</ele>
        <time>2018-09-03T23:53:29Z</time>
      </trkpt>
      <trkpt lat="49.21626" lon="6.84713">
        <ele>224</ele>
        <time>2018-09-03T23:54:29Z</time>
      </trkpt>
      <trkpt lat="49.21632" lon="6.84727">
        <ele>223</ele>
        <time>2018-09-03T23:55:29Z</time>
      </trkpt>
      <trkpt lat="49.21637" lon="6.8474">
        <ele>223</ele>
        <time>2018-09-03T23:56:29Z</time>
      </trkpt>
      <trkpt lat="49.21641" lon="6.8475">
        <ele>223</ele>
        <time>2018-09-03T23:57:29Z</time>
      </trkpt>
      <trkpt lat="49.21663" lon="6.84793">
        <ele>223</ele>
        <time>2018-09-03T23:58:29Z</time>
      </trkpt>
      <trkpt lat="49.21667" lon="6.84804">
        <ele>224</ele>
        <time>2018-09-03T23:59:29Z</time>
      </trkpt>
      <trkpt lat="49.21677" lon="6.84821">
        <ele>224</ele>
        <time>2018-09-04T00:00:29Z</time>
      </trkpt>
      <trkpt lat="49.21679" lon="6.84823">
        <ele>224</ele>
        <time>2018-09-04T00:01:29Z</time>
      </trkpt>
      <trkpt lat="49.21687" lon="6.84825">
        <ele>224</ele>
        <time>2018-09-04T00:02:29Z</time>
      </trkpt>
      <trkpt lat="49.2169" lon="6.84813">
        <ele>224</ele>
        <time>2018-09-04T00:03:29Z</time>
      </trkpt>
      <trkpt lat="49.21682" lon="6.84794">
        <ele>223</ele>
        <time>2018-09-04T00:04:29Z</time>
      </trkpt>
      <trkpt lat="49.21663" lon="6.84758">
        <ele>222</ele>
        <time>2018-09-04T00:05:29Z</time>
      </trkpt>
      <trkpt lat="49.21657" lon="6.84747">
        <ele>222</ele>
        <time>2018-09-04T00:06:29Z</time>
      </trkpt>
      <trkpt lat="49.21651" lon="6.8473">
        <ele>222</ele>
        <time>2018-09-04T00:07:29Z</time>
      </trkpt>
      <trkpt lat="49.21642" lon="6.84713">
        <ele>222</ele>
        <time>2018-09-04T00:08:29Z</time>
      </trkpt>
      <trkpt lat="49.21636" lon="6.84701">
        <ele>222</ele>
        <time>2018-09-04T00:09:29Z</time>
      </trkpt>
      <trkpt lat="49.21627" lon="6.84688">
        <ele>223</ele>
        <time>2018-09-04T00:10:29Z</time>
      </trkpt>
      <trkpt lat="49.21621" lon="6.84677">
        <ele>223</ele>
        <time>2018-09-04T00:11:29Z</time>
      </trkpt>
      <trkpt lat="49.21607" lon="6.8465">
        <ele>224</ele>
        <time>2018-09-04T00:12:29Z</time>
      </trkpt>
      <trkpt lat="49.21597" lon="6.84625">
        <ele>224</ele>
        <time>2018-09-04T00:13:29Z</time>
      </trkpt>
      <trkpt lat="49.21594" lon="6.84608">
        <ele>224</ele>
        <time>2018-09-04T00:14:29Z</time>
      </trkpt>
      <trkpt lat="49.21594" lon="6.84595">
        <ele>224</ele>
        <time>2018-09-04T00:15:29Z</time>
      </trkpt>
      <trkpt lat="49.21582" lon="6.84562">
        <ele>223</ele>
        <time>2018-09-04T00:16:29Z</time>
      </trkpt>
      <trkpt lat="49.21576" lon="6.84543">
        <ele>222</ele>
        <time>2018-09-04T00:17:29Z</time>
      </trkpt>
      <trkpt lat="49.21574" lon="6.84531">
        <ele>222</ele>
        <time>2018-09-04T00:18:29Z</time>
      </trkpt>
      <trkpt lat="49.21567" lon="6.84509">
        <ele>221</ele>
        <time>2018-09-04T00:19:29Z</time>
      </trkpt>
      <trkpt lat="49.21566" lon="6.84495">
        <ele>221</ele>
        <time>2018-09-04T00:20:29Z</time>
      </trkpt>
      <trkpt lat="49.21558" lon="6.84475">
        <ele>220</ele>
        <time>2018-09-04T00:21:29Z</time>
      </trkpt>
      <trkpt lat="49.21554" lon="6.84459">
        <ele>220</ele>
        <time>2018-09-04T00:22:29Z</time>
      </trkpt>
      <trkpt lat="49.21551" lon="6.84447">
        <ele>219</ele>
        <time>2018-09-04T00:23:29Z</time>
      </trkpt>
      <trkpt lat="49.21549" lon="6.84423">
        <ele>217</ele>
        <time>2018-09-04T00:24:29Z</time>
      </trkpt>
      <trkpt lat="49.21545" lon="6.84406">
        <ele>216</ele>
        <time>2018-09-04T00:25:29Z</time>
      </trkpt>
      <trkpt lat="49.21544" lon="6.84389">
        <ele>216</ele>
        <time>2018-09-04T00:26:29Z</time>
      </trkpt>
      <trkpt lat="49.21543" lon="6.84377">
        <ele>216</ele>
        <time>2018-09-04T00:27:29Z</time>
      </trkpt>
      <trkpt lat="49.21546" lon="6.84365">
        <ele>216</ele>
        <time>2018-09-04T00:28:29Z</time>
      </trkpt>
      <trkpt lat="49.21551" lon="6.84353">
        <ele>217</ele>
        <time>2018-09-04T00:29:29Z</time>
      </trkpt>
      <trkpt lat="49.21549" lon="6.84339">
        <ele>217</ele>
        <time>2018-09-04T00:30:29Z</time>
      </trkpt>
      <trkpt lat="49.21546" lon="6.84329">
        <ele>217</ele>
        <time>2018-09-04T00:31:29Z</time>
      </trkpt>
      <trkpt lat="49.21535" lon="6.84303">
        <ele>216</ele>
        <time>2018-09-04T00:32:29Z</time>
      </trkpt>
      <trkpt lat="49.21523" lon="6.84292">
        <ele>215</ele>
        <time>2018-09-04T00:33:29Z</time>
      </trkpt>
    </trkseg>
  </trk>
</gpx>